<?xml version="1.0" encoding="UTF-8" standalone="no" ?><gpx xmlns="http://www.topografix.com/GPX/1/1" xmlns:gpxx="http://www.garmin.com/xmlschemas/GpxExtensions/v3" xmlns:wptx1="http://www.garmin.com/xmlschemas/WaypointExtension/v1" xmlns:gpxtpx="http://www.garmin.com/xmlschemas/TrackPointExtension/v1" creator="GuideVTT.com" version="1.1" xmlns:xsi="http://www.w3.org/2001/XMLSchema-instance" xsi:schemaLocation="http://www.topografix.com/GPX/1/1 http://www.topografix.com/GPX/1/1/gpx.xsd http://www.garmin.com/xmlschemas/GpxExtensions/v3 http://www8.garmin.com/xmlschemas/GpxExtensionsv3.xsd http://www.garmin.com/xmlschemas/WaypointExtension/v1 http://www8.garmin.com/xmlschemas/WaypointExtensionv1.xsd http://www.garmin.com/xmlschemas/TrackPointExtension/v1 http://www.garmin.com/xmlschemas/TrackPointExtensionv1.xsd">
<metadata><link href="http://www.garmin.com"><text>Garmin International</text></link><time>2013-06-22T15:13:50Z</time></metadata>
<trk><name>telepherique_saleve.gpx</name><extensions><gpxx:TrackExtension><gpxx:DisplayColor>Cyan</gpxx:DisplayColor></gpxx:TrackExtension></extensions><trkseg>
<trkpt lat="46.15292190" lon="6.19482717"><ele></ele><time>2014-4-20T19:9:36Z</time></trkpt>
<trkpt lat="46.15316162" lon="6.19473556"><ele></ele><time>2014-4-20T19:9:39Z</time></trkpt>
<trkpt lat="46.15326128" lon="6.19461520"><ele></ele><time>2014-4-20T19:9:42Z</time></trkpt>
<trkpt lat="46.15334493" lon="6.19438335"><ele></ele><time>2014-4-20T19:9:45Z</time></trkpt>
<trkpt lat="46.15336295" lon="6.19431588"><ele></ele><time>2014-4-20T19:9:48Z</time></trkpt>
<trkpt lat="46.15341752" lon="6.19411496"><ele></ele><time>2014-4-20T19:9:51Z</time></trkpt>
<trkpt lat="46.15342632" lon="6.19408177"><ele></ele><time>2014-4-20T19:9:54Z</time></trkpt>
<trkpt lat="46.15342489" lon="6.19387675"><ele></ele><time>2014-4-20T19:9:57Z</time></trkpt>
<trkpt lat="46.15340143" lon="6.19377164"><ele></ele><time>2014-4-20T19:10:0Z</time></trkpt>
<trkpt lat="46.15338064" lon="6.19370610"><ele></ele><time>2014-4-20T19:10:3Z</time></trkpt>
<trkpt lat="46.15337058" lon="6.19354843"><ele></ele><time>2014-4-20T19:10:6Z</time></trkpt>
<trkpt lat="46.15329766" lon="6.19335313"><ele></ele><time>2014-4-20T19:10:9Z</time></trkpt>
<trkpt lat="46.15328643" lon="6.19328692"><ele></ele><time>2014-4-20T19:10:12Z</time></trkpt>
<trkpt lat="46.15327754" lon="6.19322196"><ele></ele><time>2014-4-20T19:10:15Z</time></trkpt>
<trkpt lat="46.15325860" lon="6.19304007"><ele></ele><time>2014-4-20T19:10:18Z</time></trkpt>
<trkpt lat="46.15324887" lon="6.19298123"><ele></ele><time>2014-4-20T19:10:21Z</time></trkpt>
<trkpt lat="46.15309968" lon="6.19260488"><ele></ele><time>2014-4-20T19:10:24Z</time></trkpt>
<trkpt lat="46.15288569" lon="6.19200457"><ele></ele><time>2014-4-20T19:10:27Z</time></trkpt>
<trkpt lat="46.15262736" lon="6.19185738"><ele></ele><time>2014-4-20T19:10:30Z</time></trkpt>
<trkpt lat="46.15256969" lon="6.19223708"><ele></ele><time>2014-4-20T19:10:33Z</time></trkpt>
<trkpt lat="46.15274739" lon="6.19289456"><ele></ele><time>2014-4-20T19:10:36Z</time></trkpt>
<trkpt lat="46.15268662" lon="6.19310712"><ele></ele><time>2014-4-20T19:10:39Z</time></trkpt>
<trkpt lat="46.15246408" lon="6.19351650"><ele></ele><time>2014-4-20T19:10:42Z</time></trkpt>
<trkpt lat="46.15216166" lon="6.19365932"><ele></ele><time>2014-4-20T19:10:45Z</time></trkpt>
<trkpt lat="46.15156545" lon="6.19367265"><ele></ele><time>2014-4-20T19:10:48Z</time></trkpt>
<trkpt lat="46.15111685" lon="6.19375999"><ele></ele><time>2014-4-20T19:10:51Z</time></trkpt>
<trkpt lat="46.15067043" lon="6.19393618"><ele></ele><time>2014-4-20T19:10:54Z</time></trkpt>
<trkpt lat="46.15032543" lon="6.19402218"><ele></ele><time>2014-4-20T19:10:57Z</time></trkpt>
<trkpt lat="46.14985848" lon="6.19394984"><ele></ele><time>2014-4-20T19:11:0Z</time></trkpt>
<trkpt lat="46.14948607" lon="6.19383853"><ele></ele><time>2014-4-20T19:11:3Z</time></trkpt>
<trkpt lat="46.14942119" lon="6.19381724"><ele></ele><time>2014-4-20T19:11:6Z</time></trkpt>
<trkpt lat="46.14898114" lon="6.19361884"><ele></ele><time>2014-4-20T19:11:9Z</time></trkpt>
<trkpt lat="46.14893999" lon="6.19359688"><ele></ele><time>2014-4-20T19:11:12Z</time></trkpt>
<trkpt lat="46.14863455" lon="6.19343142"><ele></ele><time>2014-4-20T19:11:15Z</time></trkpt>
<trkpt lat="46.14832987" lon="6.19327283"><ele></ele><time>2014-4-20T19:11:18Z</time></trkpt>
<trkpt lat="46.14830908" lon="6.19332824"><ele></ele><time>2014-4-20T19:11:21Z</time></trkpt>
<trkpt lat="46.14831076" lon="6.19335758"><ele></ele><time>2014-4-20T19:11:24Z</time></trkpt>
<trkpt lat="46.14832685" lon="6.19340493"><ele></ele><time>2014-4-20T19:11:27Z</time></trkpt>
<trkpt lat="46.14821454" lon="6.19365555"><ele></ele><time>2014-4-20T19:11:30Z</time></trkpt>
<trkpt lat="46.14819123" lon="6.19370819"><ele></ele><time>2014-4-20T19:11:33Z</time></trkpt>
<trkpt lat="46.14787993" lon="6.19400843"><ele></ele><time>2014-4-20T19:11:36Z</time></trkpt>
<trkpt lat="46.14775085" lon="6.19403902"><ele></ele><time>2014-4-20T19:11:39Z</time></trkpt>
<trkpt lat="46.14737668" lon="6.19417624"><ele></ele><time>2014-4-20T19:11:42Z</time></trkpt>
<trkpt lat="46.14703545" lon="6.19407406"><ele></ele><time>2014-4-20T19:11:45Z</time></trkpt>
<trkpt lat="46.14684426" lon="6.19393894"><ele></ele><time>2014-4-20T19:11:48Z</time></trkpt>
<trkpt lat="46.14680872" lon="6.19393467"><ele></ele><time>2014-4-20T19:11:51Z</time></trkpt>
<trkpt lat="46.14666539" lon="6.19395479"><ele></ele><time>2014-4-20T19:11:54Z</time></trkpt>
<trkpt lat="46.14663195" lon="6.19393492"><ele></ele><time>2014-4-20T19:11:57Z</time></trkpt>
<trkpt lat="46.14631972" lon="6.19375798"><ele></ele><time>2014-4-20T19:12:0Z</time></trkpt>
<trkpt lat="46.14609676" lon="6.19343586"><ele></ele><time>2014-4-20T19:12:3Z</time></trkpt>
<trkpt lat="46.14600180" lon="6.19328708"><ele></ele><time>2014-4-20T19:12:6Z</time></trkpt>
<trkpt lat="46.14598989" lon="6.19327778"><ele></ele><time>2014-4-20T19:12:9Z</time></trkpt>
<trkpt lat="46.14583173" lon="6.19297234"><ele></ele><time>2014-4-20T19:12:12Z</time></trkpt>
<trkpt lat="46.14573014" lon="6.19277730"><ele></ele><time>2014-4-20T19:12:15Z</time></trkpt>
<trkpt lat="46.14565428" lon="6.19255719"><ele></ele><time>2014-4-20T19:12:18Z</time></trkpt>
<trkpt lat="46.14563148" lon="6.19249474"><ele></ele><time>2014-4-20T19:12:21Z</time></trkpt>
<trkpt lat="46.14553962" lon="6.19231445"><ele></ele><time>2014-4-20T19:12:24Z</time></trkpt>
<trkpt lat="46.14535463" lon="6.19211135"><ele></ele><time>2014-4-20T19:12:27Z</time></trkpt>
<trkpt lat="46.14525975" lon="6.19204254"><ele></ele><time>2014-4-20T19:12:30Z</time></trkpt>
<trkpt lat="46.14519219" lon="6.19198303"><ele></ele><time>2014-4-20T19:12:33Z</time></trkpt>
<trkpt lat="46.14512706" lon="6.19191765"><ele></ele><time>2014-4-20T19:12:36Z</time></trkpt>
<trkpt lat="46.14504752" lon="6.19185747"><ele></ele><time>2014-4-20T19:12:39Z</time></trkpt>
<trkpt lat="46.14495113" lon="6.19178329"><ele></ele><time>2014-4-20T19:12:42Z</time></trkpt>
<trkpt lat="46.14485566" lon="6.19165479"><ele></ele><time>2014-4-20T19:12:45Z</time></trkpt>
<trkpt lat="46.14470143" lon="6.19154868"><ele></ele><time>2014-4-20T19:12:48Z</time></trkpt>
<trkpt lat="46.14463898" lon="6.19150903"><ele></ele><time>2014-4-20T19:12:51Z</time></trkpt>
<trkpt lat="46.14452759" lon="6.19143376"><ele></ele><time>2014-4-20T19:12:54Z</time></trkpt>
<trkpt lat="46.14448518" lon="6.19140669"><ele></ele><time>2014-4-20T19:12:57Z</time></trkpt>
<trkpt lat="46.14443136" lon="6.19137484"><ele></ele><time>2014-4-20T19:13:0Z</time></trkpt>
<trkpt lat="46.14430220" lon="6.19133435"><ele></ele><time>2014-4-20T19:13:3Z</time></trkpt>
<trkpt lat="46.14423313" lon="6.19131675"><ele></ele><time>2014-4-20T19:13:6Z</time></trkpt>
<trkpt lat="46.14415426" lon="6.19129286"><ele></ele><time>2014-4-20T19:13:9Z</time></trkpt>
<trkpt lat="46.14421519" lon="6.19141792"><ele></ele><time>2014-4-20T19:13:12Z</time></trkpt>
<trkpt lat="46.14420078" lon="6.19138163"><ele></ele><time>2014-4-20T19:13:15Z</time></trkpt>
<trkpt lat="46.14419323" lon="6.19134902"><ele></ele><time>2014-4-20T19:13:18Z</time></trkpt>
<trkpt lat="46.14407388" lon="6.19120033"><ele></ele><time>2014-4-20T19:13:21Z</time></trkpt>
<trkpt lat="46.14405460" lon="6.19119379"><ele></ele><time>2014-4-20T19:13:24Z</time></trkpt>
<trkpt lat="46.14401118" lon="6.19118323"><ele></ele><time>2014-4-20T19:13:27Z</time></trkpt>
<trkpt lat="46.14381814" lon="6.19125506"><ele></ele><time>2014-4-20T19:13:30Z</time></trkpt>
<trkpt lat="46.14365067" lon="6.19123997"><ele></ele><time>2014-4-20T19:13:33Z</time></trkpt>
<trkpt lat="46.14346736" lon="6.19122002"><ele></ele><time>2014-4-20T19:13:36Z</time></trkpt>
<trkpt lat="46.14321498" lon="6.19113830"><ele></ele><time>2014-4-20T19:13:39Z</time></trkpt>
<trkpt lat="46.14302295" lon="6.19100746"><ele></ele><time>2014-4-20T19:13:42Z</time></trkpt>
<trkpt lat="46.14282137" lon="6.19094543"><ele></ele><time>2014-4-20T19:13:45Z</time></trkpt>
<trkpt lat="46.14262808" lon="6.19106948"><ele></ele><time>2014-4-20T19:13:48Z</time></trkpt>
<trkpt lat="46.14257502" lon="6.19108466"><ele></ele><time>2014-4-20T19:13:51Z</time></trkpt>
<trkpt lat="46.14250747" lon="6.19105213"><ele></ele><time>2014-4-20T19:13:54Z</time></trkpt>
<trkpt lat="46.14229666" lon="6.19094283"><ele></ele><time>2014-4-20T19:13:57Z</time></trkpt>
<trkpt lat="46.14226280" lon="6.19093554"><ele></ele><time>2014-4-20T19:14:0Z</time></trkpt>
<trkpt lat="46.14194185" lon="6.19091936"><ele></ele><time>2014-4-20T19:14:3Z</time></trkpt>
<trkpt lat="46.14163608" lon="6.19076857"><ele></ele><time>2014-4-20T19:14:6Z</time></trkpt>
<trkpt lat="46.14145160" lon="6.19053916"><ele></ele><time>2014-4-20T19:14:9Z</time></trkpt>
<trkpt lat="46.14133894" lon="6.19043078"><ele></ele><time>2014-4-20T19:14:12Z</time></trkpt>
<trkpt lat="46.14129569" lon="6.19037102"><ele></ele><time>2014-4-20T19:14:15Z</time></trkpt>
<trkpt lat="46.14112110" lon="6.19030698"><ele></ele><time>2014-4-20T19:14:18Z</time></trkpt>
<trkpt lat="46.14080166" lon="6.19031922"><ele></ele><time>2014-4-20T19:14:21Z</time></trkpt>
<trkpt lat="46.14055079" lon="6.19023213"><ele></ele><time>2014-4-20T19:14:24Z</time></trkpt>
<trkpt lat="46.14026606" lon="6.19009576"><ele></ele><time>2014-4-20T19:14:27Z</time></trkpt>
<trkpt lat="46.13994562" lon="6.18988328"><ele></ele><time>2014-4-20T19:14:30Z</time></trkpt>
<trkpt lat="46.13978569" lon="6.18955404"><ele></ele><time>2014-4-20T19:14:33Z</time></trkpt>
<trkpt lat="46.13971428" lon="6.18946418"><ele></ele><time>2014-4-20T19:14:36Z</time></trkpt>
<trkpt lat="46.13965318" lon="6.18940568"><ele></ele><time>2014-4-20T19:14:39Z</time></trkpt>
<trkpt lat="46.13969685" lon="6.18943837"><ele></ele><time>2014-4-20T19:14:42Z</time></trkpt>
<trkpt lat="46.13970523" lon="6.18941909"><ele></ele><time>2014-4-20T19:14:45Z</time></trkpt>
<trkpt lat="46.13948998" lon="6.18921599"><ele></ele><time>2014-4-20T19:14:48Z</time></trkpt>
<trkpt lat="46.13923157" lon="6.18896479"><ele></ele><time>2014-4-20T19:14:51Z</time></trkpt>
<trkpt lat="46.13889084" lon="6.18874342"><ele></ele><time>2014-4-20T19:14:54Z</time></trkpt>
<trkpt lat="46.13854542" lon="6.18866237"><ele></ele><time>2014-4-20T19:14:57Z</time></trkpt>
<trkpt lat="46.13822808" lon="6.18850638"><ele></ele><time>2014-4-20T19:15:0Z</time></trkpt>
<trkpt lat="46.13797839" lon="6.18809542"><ele></ele><time>2014-4-20T19:15:3Z</time></trkpt>
<trkpt lat="46.13786205" lon="6.18803314"><ele></ele><time>2014-4-20T19:15:6Z</time></trkpt>
<trkpt lat="46.13779415" lon="6.18787455"><ele></ele><time>2014-4-20T19:15:9Z</time></trkpt>
<trkpt lat="46.13744362" lon="6.18762838"><ele></ele><time>2014-4-20T19:15:12Z</time></trkpt>
<trkpt lat="46.13728018" lon="6.18756937"><ele></ele><time>2014-4-20T19:15:15Z</time></trkpt>
<trkpt lat="46.13705378" lon="6.18733669"><ele></ele><time>2014-4-20T19:15:18Z</time></trkpt>
<trkpt lat="46.13678883" lon="6.18711079"><ele></ele><time>2014-4-20T19:15:21Z</time></trkpt>
<trkpt lat="46.13665463" lon="6.18696244"><ele></ele><time>2014-4-20T19:15:24Z</time></trkpt>
<trkpt lat="46.13653343" lon="6.18684283"><ele></ele><time>2014-4-20T19:15:27Z</time></trkpt>
<trkpt lat="46.13640175" lon="6.18674509"><ele></ele><time>2014-4-20T19:15:30Z</time></trkpt>
<trkpt lat="46.13627166" lon="6.18664702"><ele></ele><time>2014-4-20T19:15:33Z</time></trkpt>
<trkpt lat="46.13621375" lon="6.18657712"><ele></ele><time>2014-4-20T19:15:36Z</time></trkpt>
<trkpt lat="46.13607637" lon="6.18651836"><ele></ele><time>2014-4-20T19:15:39Z</time></trkpt>
<trkpt lat="46.13603957" lon="6.18649246"><ele></ele><time>2014-4-20T19:15:42Z</time></trkpt>
<trkpt lat="46.13589917" lon="6.18643798"><ele></ele><time>2014-4-20T19:15:45Z</time></trkpt>
<trkpt lat="46.13554370" lon="6.18617965"><ele></ele><time>2014-4-20T19:15:48Z</time></trkpt>
<trkpt lat="46.13535183" lon="6.18583063"><ele></ele><time>2014-4-20T19:15:51Z</time></trkpt>
<trkpt lat="46.13506358" lon="6.18557615"><ele></ele><time>2014-4-20T19:15:54Z</time></trkpt>
<trkpt lat="46.13479754" lon="6.18531103"><ele></ele><time>2014-4-20T19:15:57Z</time></trkpt>
<trkpt lat="46.13462395" lon="6.18517810"><ele></ele><time>2014-4-20T19:16:0Z</time></trkpt>
<trkpt lat="46.13455572" lon="6.18516234"><ele></ele><time>2014-4-20T19:16:3Z</time></trkpt>
<trkpt lat="46.13447350" lon="6.18515647"><ele></ele><time>2014-4-20T19:16:6Z</time></trkpt>
<trkpt lat="46.13426118" lon="6.18510584"><ele></ele><time>2014-4-20T19:16:9Z</time></trkpt>
<trkpt lat="46.13399137" lon="6.18496033"><ele></ele><time>2014-4-20T19:16:12Z</time></trkpt>
<trkpt lat="46.13380118" lon="6.18485816"><ele></ele><time>2014-4-20T19:16:15Z</time></trkpt>
<trkpt lat="46.13373538" lon="6.18482094"><ele></ele><time>2014-4-20T19:16:18Z</time></trkpt>
<trkpt lat="46.13332853" lon="6.18460377"><ele></ele><time>2014-4-20T19:16:21Z</time></trkpt>
<trkpt lat="46.13300784" lon="6.18434653"><ele></ele><time>2014-4-20T19:16:24Z</time></trkpt>
<trkpt lat="46.13268714" lon="6.18413455"><ele></ele><time>2014-4-20T19:16:27Z</time></trkpt>
<trkpt lat="46.13236637" lon="6.18391427"><ele></ele><time>2014-4-20T19:16:30Z</time></trkpt>
<trkpt lat="46.13194166" lon="6.18356818"><ele></ele><time>2014-4-20T19:16:33Z</time></trkpt>
<trkpt lat="46.13169037" lon="6.18306602"><ele></ele><time>2014-4-20T19:16:36Z</time></trkpt>
<trkpt lat="46.13152692" lon="6.18276117"><ele></ele><time>2014-4-20T19:16:39Z</time></trkpt>
<trkpt lat="46.13126054" lon="6.18230235"><ele></ele><time>2014-4-20T19:16:42Z</time></trkpt>
<trkpt lat="46.13105108" lon="6.18176389"><ele></ele><time>2014-4-20T19:16:45Z</time></trkpt>
<trkpt lat="46.13107396" lon="6.18148704"><ele></ele><time>2014-4-20T19:16:48Z</time></trkpt>
<trkpt lat="46.13105745" lon="6.18088463"><ele></ele><time>2014-4-20T19:16:51Z</time></trkpt>
<trkpt lat="46.13101076" lon="6.18064969"><ele></ele><time>2014-4-20T19:16:54Z</time></trkpt>
<trkpt lat="46.13075813" lon="6.18032807"><ele></ele><time>2014-4-20T19:16:57Z</time></trkpt>
<trkpt lat="46.13072569" lon="6.18024987"><ele></ele><time>2014-4-20T19:17:0Z</time></trkpt>
<trkpt lat="46.13066878" lon="6.17964017"><ele></ele><time>2014-4-20T19:17:3Z</time></trkpt>
<trkpt lat="46.13066476" lon="6.17958695"><ele></ele><time>2014-4-20T19:17:6Z</time></trkpt>
<trkpt lat="46.13063693" lon="6.17954906"><ele></ele><time>2014-4-20T19:17:9Z</time></trkpt>
<trkpt lat="46.13065076" lon="6.17952215"><ele></ele><time>2014-4-20T19:17:12Z</time></trkpt>
<trkpt lat="46.13063425" lon="6.17940816"><ele></ele><time>2014-4-20T19:17:15Z</time></trkpt>
<trkpt lat="46.13055060" lon="6.17872336"><ele></ele><time>2014-4-20T19:17:18Z</time></trkpt>
<trkpt lat="46.13056778" lon="6.17853276"><ele></ele><time>2014-4-20T19:17:21Z</time></trkpt>
<trkpt lat="46.13054506" lon="6.17820284"><ele></ele><time>2014-4-20T19:17:24Z</time></trkpt>
<trkpt lat="46.13059636" lon="6.17757185"><ele></ele><time>2014-4-20T19:17:27Z</time></trkpt>
<trkpt lat="46.13071186" lon="6.17704413"><ele></ele><time>2014-4-20T19:17:30Z</time></trkpt>
<trkpt lat="46.13070885" lon="6.17653375"><ele></ele><time>2014-4-20T19:17:33Z</time></trkpt>
<trkpt lat="46.13042889" lon="6.17613385"><ele></ele><time>2014-4-20T19:17:36Z</time></trkpt>
<trkpt lat="46.13017014" lon="6.17594912"><ele></ele><time>2014-4-20T19:17:39Z</time></trkpt>
<trkpt lat="46.13000460" lon="6.17588173"><ele></ele><time>2014-4-20T19:17:42Z</time></trkpt>
<trkpt lat="46.12948953" lon="6.17559180"><ele></ele><time>2014-4-20T19:17:45Z</time></trkpt>
<trkpt lat="46.12903054" lon="6.17548300"><ele></ele><time>2014-4-20T19:17:48Z</time></trkpt>
<trkpt lat="46.12877087" lon="6.17541485"><ele></ele><time>2014-4-20T19:17:51Z</time></trkpt>
<trkpt lat="46.12875167" lon="6.17536976"><ele></ele><time>2014-4-20T19:17:54Z</time></trkpt>
<trkpt lat="46.12874572" lon="6.17535853"><ele></ele><time>2014-4-20T19:17:57Z</time></trkpt>
<trkpt lat="46.12857800" lon="6.17529499"><ele></ele><time>2014-4-20T19:18:0Z</time></trkpt>
<trkpt lat="46.12844045" lon="6.17521176"><ele></ele><time>2014-4-20T19:18:3Z</time></trkpt>
<trkpt lat="46.12830207" lon="6.17516926"><ele></ele><time>2014-4-20T19:18:6Z</time></trkpt>
<trkpt lat="46.12819377" lon="6.17515904"><ele></ele><time>2014-4-20T19:18:9Z</time></trkpt>
<trkpt lat="46.12777627" lon="6.17516264"><ele></ele><time>2014-4-20T19:18:12Z</time></trkpt>
<trkpt lat="46.12769522" lon="6.17516398"><ele></ele><time>2014-4-20T19:18:15Z</time></trkpt>
<trkpt lat="46.12734477" lon="6.17515837"><ele></ele><time>2014-4-20T19:18:18Z</time></trkpt>
<trkpt lat="46.12687639" lon="6.17503013"><ele></ele><time>2014-4-20T19:18:21Z</time></trkpt>
<trkpt lat="46.12669023" lon="6.17495092"><ele></ele><time>2014-4-20T19:18:24Z</time></trkpt>
<trkpt lat="46.12643383" lon="6.17458035"><ele></ele><time>2014-4-20T19:18:27Z</time></trkpt>
<trkpt lat="46.12596947" lon="6.17365407"><ele></ele><time>2014-4-20T19:18:30Z</time></trkpt>
<trkpt lat="46.12587383" lon="6.17341183"><ele></ele><time>2014-4-20T19:18:33Z</time></trkpt>
<trkpt lat="46.12583343" lon="6.17327789"><ele></ele><time>2014-4-20T19:18:36Z</time></trkpt>
<trkpt lat="46.12575472" lon="6.17284714"><ele></ele><time>2014-4-20T19:18:39Z</time></trkpt>
<trkpt lat="46.12573016" lon="6.17270809"><ele></ele><time>2014-4-20T19:18:42Z</time></trkpt>
<trkpt lat="46.12563914" lon="6.17246870"><ele></ele><time>2014-4-20T19:18:45Z</time></trkpt>
<trkpt lat="46.12534133" lon="6.17224708"><ele></ele><time>2014-4-20T19:18:48Z</time></trkpt>
<trkpt lat="46.12517713" lon="6.17219335"><ele></ele><time>2014-4-20T19:18:51Z</time></trkpt>
<trkpt lat="46.12509356" lon="6.17215815"><ele></ele><time>2014-4-20T19:18:54Z</time></trkpt>
<trkpt lat="46.12446835" lon="6.17163143"><ele></ele><time>2014-4-20T19:18:57Z</time></trkpt>
<trkpt lat="46.12414565" lon="6.17150118"><ele></ele><time>2014-4-20T19:19:0Z</time></trkpt>
<trkpt lat="46.12331676" lon="6.17128660"><ele></ele><time>2014-4-20T19:19:3Z</time></trkpt>
<trkpt lat="46.12308173" lon="6.17129406"><ele></ele><time>2014-4-20T19:19:6Z</time></trkpt>
<trkpt lat="46.12233315" lon="6.17155532"><ele></ele><time>2014-4-20T19:19:9Z</time></trkpt>
<trkpt lat="46.12221488" lon="6.17161894"><ele></ele><time>2014-4-20T19:19:12Z</time></trkpt>
<trkpt lat="46.12189494" lon="6.17177174"><ele></ele><time>2014-4-20T19:19:15Z</time></trkpt>
<trkpt lat="46.12172906" lon="6.17182572"><ele></ele><time>2014-4-20T19:19:18Z</time></trkpt>
<trkpt lat="46.12147056" lon="6.17186017"><ele></ele><time>2014-4-20T19:19:21Z</time></trkpt>
<trkpt lat="46.12142589" lon="6.17186805"><ele></ele><time>2014-4-20T19:19:24Z</time></trkpt>
<trkpt lat="46.12100906" lon="6.17199940"><ele></ele><time>2014-4-20T19:19:27Z</time></trkpt>
<trkpt lat="46.12090319" lon="6.17202136"><ele></ele><time>2014-4-20T19:19:30Z</time></trkpt>
<trkpt lat="46.12077143" lon="6.17203519"><ele></ele><time>2014-4-20T19:19:33Z</time></trkpt>
<trkpt lat="46.12053229" lon="6.17204927"><ele></ele><time>2014-4-20T19:19:36Z</time></trkpt>
<trkpt lat="46.12014639" lon="6.17209679"><ele></ele><time>2014-4-20T19:19:39Z</time></trkpt>
<trkpt lat="46.11992268" lon="6.17200032"><ele></ele><time>2014-4-20T19:19:42Z</time></trkpt>
<trkpt lat="46.11967566" lon="6.17179295"><ele></ele><time>2014-4-20T19:19:45Z</time></trkpt>
<trkpt lat="46.11944022" lon="6.17121686"><ele></ele><time>2014-4-20T19:19:48Z</time></trkpt>
<trkpt lat="46.11943083" lon="6.17085367"><ele></ele><time>2014-4-20T19:19:51Z</time></trkpt>
<trkpt lat="46.11930418" lon="6.17031078"><ele></ele><time>2014-4-20T19:19:54Z</time></trkpt>
<trkpt lat="46.11918977" lon="6.16996997"><ele></ele><time>2014-4-20T19:19:57Z</time></trkpt>
<trkpt lat="46.11905607" lon="6.16962874"><ele></ele><time>2014-4-20T19:20:0Z</time></trkpt>
<trkpt lat="46.11890419" lon="6.16938684"><ele></ele><time>2014-4-20T19:20:3Z</time></trkpt>
<trkpt lat="46.11877696" lon="6.16922515"><ele></ele><time>2014-4-20T19:20:6Z</time></trkpt>
<trkpt lat="46.11876807" lon="6.16921409"><ele></ele><time>2014-4-20T19:20:9Z</time></trkpt>
<trkpt lat="46.11864729" lon="6.16902667"><ele></ele><time>2014-4-20T19:20:12Z</time></trkpt>
<trkpt lat="46.11858652" lon="6.16896925"><ele></ele><time>2014-4-20T19:20:15Z</time></trkpt>
<trkpt lat="46.11857772" lon="6.16896297"><ele></ele><time>2014-4-20T19:20:18Z</time></trkpt>
<trkpt lat="46.11838703" lon="6.16899507"><ele></ele><time>2014-4-20T19:20:21Z</time></trkpt>
<trkpt lat="46.11822174" lon="6.16906079"><ele></ele><time>2014-4-20T19:20:24Z</time></trkpt>
<trkpt lat="46.11816768" lon="6.16908987"><ele></ele><time>2014-4-20T19:20:27Z</time></trkpt>
<trkpt lat="46.11810389" lon="6.16912155"><ele></ele><time>2014-4-20T19:20:30Z</time></trkpt>
<trkpt lat="46.11805812" lon="6.16917788"><ele></ele><time>2014-4-20T19:20:33Z</time></trkpt>
<trkpt lat="46.11786308" lon="6.16930336"><ele></ele><time>2014-4-20T19:20:36Z</time></trkpt>
<trkpt lat="46.11766929" lon="6.16928743"><ele></ele><time>2014-4-20T19:20:39Z</time></trkpt>
<trkpt lat="46.11746393" lon="6.16926514"><ele></ele><time>2014-4-20T19:20:42Z</time></trkpt>
<trkpt lat="46.11727567" lon="6.16923538"><ele></ele><time>2014-4-20T19:20:45Z</time></trkpt>
<trkpt lat="46.11704366" lon="6.16920428"><ele></ele><time>2014-4-20T19:20:48Z</time></trkpt>
<trkpt lat="46.11678818" lon="6.16922356"><ele></ele><time>2014-4-20T19:20:51Z</time></trkpt>
<trkpt lat="46.11656506" lon="6.16930017"><ele></ele><time>2014-4-20T19:20:54Z</time></trkpt>
<trkpt lat="46.11637705" lon="6.16925139"><ele></ele><time>2014-4-20T19:20:57Z</time></trkpt>
<trkpt lat="46.11629759" lon="6.16919355"><ele></ele><time>2014-4-20T19:21:0Z</time></trkpt>
<trkpt lat="46.11621863" lon="6.16913966"><ele></ele><time>2014-4-20T19:21:3Z</time></trkpt>
<trkpt lat="46.11601738" lon="6.16893145"><ele></ele><time>2014-4-20T19:21:6Z</time></trkpt>
<trkpt lat="46.11576375" lon="6.16873465"><ele></ele><time>2014-4-20T19:21:9Z</time></trkpt>
<trkpt lat="46.11575302" lon="6.16872249"><ele></ele><time>2014-4-20T19:21:12Z</time></trkpt>
<trkpt lat="46.11563257" lon="6.16851722"><ele></ele><time>2014-4-20T19:21:15Z</time></trkpt>
<trkpt lat="46.11562712" lon="6.16850532"><ele></ele><time>2014-4-20T19:21:18Z</time></trkpt>
<trkpt lat="46.11561522" lon="6.16850389"><ele></ele><time>2014-4-20T19:21:21Z</time></trkpt>
<trkpt lat="46.11547650" lon="6.16823408"><ele></ele><time>2014-4-20T19:21:24Z</time></trkpt>
<trkpt lat="46.11534742" lon="6.16786896"><ele></ele><time>2014-4-20T19:21:27Z</time></trkpt>
<trkpt lat="46.11520325" lon="6.16761868"><ele></ele><time>2014-4-20T19:21:30Z</time></trkpt>
<trkpt lat="46.11512588" lon="6.16756478"><ele></ele><time>2014-4-20T19:21:33Z</time></trkpt>
<trkpt lat="46.11503452" lon="6.16749429"><ele></ele><time>2014-4-20T19:21:36Z</time></trkpt>
<trkpt lat="46.11479698" lon="6.16725096"><ele></ele><time>2014-4-20T19:21:39Z</time></trkpt>
<trkpt lat="46.11475063" lon="6.16724627"><ele></ele><time>2014-4-20T19:21:42Z</time></trkpt>
<trkpt lat="46.11451325" lon="6.16697906"><ele></ele><time>2014-4-20T19:21:45Z</time></trkpt>
<trkpt lat="46.11445240" lon="6.16689398"><ele></ele><time>2014-4-20T19:21:48Z</time></trkpt>
<trkpt lat="46.11438174" lon="6.16677546"><ele></ele><time>2014-4-20T19:21:51Z</time></trkpt>
<trkpt lat="46.11433413" lon="6.16671880"><ele></ele><time>2014-4-20T19:21:54Z</time></trkpt>
<trkpt lat="46.11428518" lon="6.16665677"><ele></ele><time>2014-4-20T19:21:57Z</time></trkpt>
<trkpt lat="46.11407077" lon="6.16670748"><ele></ele><time>2014-4-20T19:22:0Z</time></trkpt>
<trkpt lat="46.11385854" lon="6.16680974"><ele></ele><time>2014-4-20T19:22:3Z</time></trkpt>
<trkpt lat="46.11382283" lon="6.16685257"><ele></ele><time>2014-4-20T19:22:6Z</time></trkpt>
<trkpt lat="46.11370490" lon="6.16695039"><ele></ele><time>2014-4-20T19:22:9Z</time></trkpt>
<trkpt lat="46.11368403" lon="6.16697847"><ele></ele><time>2014-4-20T19:22:12Z</time></trkpt>
<trkpt lat="46.11364237" lon="6.16702608"><ele></ele><time>2014-4-20T19:22:15Z</time></trkpt>
<trkpt lat="46.11351220" lon="6.16718198"><ele></ele><time>2014-4-20T19:22:18Z</time></trkpt>
<trkpt lat="46.11348236" lon="6.16724635"><ele></ele><time>2014-4-20T19:22:21Z</time></trkpt>
<trkpt lat="46.11340139" lon="6.16727846"><ele></ele><time>2014-4-20T19:22:24Z</time></trkpt>
<trkpt lat="46.11333475" lon="6.16723252"><ele></ele><time>2014-4-20T19:22:27Z</time></trkpt>
<trkpt lat="46.11326552" lon="6.16708517"><ele></ele><time>2014-4-20T19:22:30Z</time></trkpt>
<trkpt lat="46.11322252" lon="6.16687445"><ele></ele><time>2014-4-20T19:22:33Z</time></trkpt>
<trkpt lat="46.11319846" lon="6.16661235"><ele></ele><time>2014-4-20T19:22:36Z</time></trkpt>
<trkpt lat="46.11322889" lon="6.16651948"><ele></ele><time>2014-4-20T19:22:39Z</time></trkpt>
<trkpt lat="46.11328362" lon="6.16643935"><ele></ele><time>2014-4-20T19:22:42Z</time></trkpt>
<trkpt lat="46.11333635" lon="6.16637724"><ele></ele><time>2014-4-20T19:22:45Z</time></trkpt>
<trkpt lat="46.11337633" lon="6.16627288"><ele></ele><time>2014-4-20T19:22:48Z</time></trkpt>
<trkpt lat="46.11346853" lon="6.16581657"><ele></ele><time>2014-4-20T19:22:51Z</time></trkpt>
<trkpt lat="46.11347289" lon="6.16577089"><ele></ele><time>2014-4-20T19:22:54Z</time></trkpt>
<trkpt lat="46.11346836" lon="6.16561306"><ele></ele><time>2014-4-20T19:22:57Z</time></trkpt>
<trkpt lat="46.11347725" lon="6.16556553"><ele></ele><time>2014-4-20T19:23:0Z</time></trkpt>
<trkpt lat="46.11337113" lon="6.16532489"><ele></ele><time>2014-4-20T19:23:3Z</time></trkpt>
<trkpt lat="46.11329108" lon="6.16498249"><ele></ele><time>2014-4-20T19:23:6Z</time></trkpt>
<trkpt lat="46.11327910" lon="6.16488660"><ele></ele><time>2014-4-20T19:23:9Z</time></trkpt>
<trkpt lat="46.11324079" lon="6.16472055"><ele></ele><time>2014-4-20T19:23:12Z</time></trkpt>
<trkpt lat="46.11314348" lon="6.16433440"><ele></ele><time>2014-4-20T19:23:15Z</time></trkpt>
<trkpt lat="46.11306662" lon="6.16408487"><ele></ele><time>2014-4-20T19:23:18Z</time></trkpt>
<trkpt lat="46.11293410" lon="6.16384263"><ele></ele><time>2014-4-20T19:23:21Z</time></trkpt>
<trkpt lat="46.11290652" lon="6.16379142"><ele></ele><time>2014-4-20T19:23:24Z</time></trkpt>
<trkpt lat="46.11272254" lon="6.16345765"><ele></ele><time>2014-4-20T19:23:27Z</time></trkpt>
<trkpt lat="46.11255985" lon="6.16314945"><ele></ele><time>2014-4-20T19:23:30Z</time></trkpt>
<trkpt lat="46.11238852" lon="6.16289288"><ele></ele><time>2014-4-20T19:23:33Z</time></trkpt>
<trkpt lat="46.11215819" lon="6.16260974"><ele></ele><time>2014-4-20T19:23:36Z</time></trkpt>
<trkpt lat="46.11193364" lon="6.16233489"><ele></ele><time>2014-4-20T19:23:39Z</time></trkpt>
<trkpt lat="46.11181587" lon="6.16213289"><ele></ele><time>2014-4-20T19:23:42Z</time></trkpt>
<trkpt lat="46.11174219" lon="6.16194120"><ele></ele><time>2014-4-20T19:23:45Z</time></trkpt>
<trkpt lat="46.11170573" lon="6.16184900"><ele></ele><time>2014-4-20T19:23:48Z</time></trkpt>
<trkpt lat="46.11169827" lon="6.16182905"><ele></ele><time>2014-4-20T19:23:51Z</time></trkpt>
<trkpt lat="46.11170146" lon="6.16173785"><ele></ele><time>2014-4-20T19:23:54Z</time></trkpt>
<trkpt lat="46.11155352" lon="6.16156083"><ele></ele><time>2014-4-20T19:23:57Z</time></trkpt>
<trkpt lat="46.11153608" lon="6.16154079"><ele></ele><time>2014-4-20T19:24:0Z</time></trkpt>
<trkpt lat="46.11145503" lon="6.16129235"><ele></ele><time>2014-4-20T19:24:3Z</time></trkpt>
<trkpt lat="46.11138194" lon="6.16109177"><ele></ele><time>2014-4-20T19:24:6Z</time></trkpt>
<trkpt lat="46.11124464" lon="6.16083328"><ele></ele><time>2014-4-20T19:24:9Z</time></trkpt>
<trkpt lat="46.11102110" lon="6.16055089"><ele></ele><time>2014-4-20T19:24:12Z</time></trkpt>
<trkpt lat="46.11075900" lon="6.16030698"><ele></ele><time>2014-4-20T19:24:15Z</time></trkpt>
<trkpt lat="46.11059153" lon="6.16026104"><ele></ele><time>2014-4-20T19:24:18Z</time></trkpt>
<trkpt lat="46.11058650" lon="6.16025845"><ele></ele><time>2014-4-20T19:24:21Z</time></trkpt>
<trkpt lat="46.11048214" lon="6.16019684"><ele></ele><time>2014-4-20T19:24:24Z</time></trkpt>
<trkpt lat="46.11019875" lon="6.16000850"><ele></ele><time>2014-4-20T19:24:27Z</time></trkpt>
<trkpt lat="46.10978745" lon="6.15982602"><ele></ele><time>2014-4-20T19:24:30Z</time></trkpt>
<trkpt lat="46.10944279" lon="6.15963089"><ele></ele><time>2014-4-20T19:24:33Z</time></trkpt>
<trkpt lat="46.10914439" lon="6.15936276"><ele></ele><time>2014-4-20T19:24:36Z</time></trkpt>
<trkpt lat="46.10878095" lon="6.15900208"><ele></ele><time>2014-4-20T19:24:39Z</time></trkpt>
<trkpt lat="46.10848708" lon="6.15866446"><ele></ele><time>2014-4-20T19:24:42Z</time></trkpt>
<trkpt lat="46.10825063" lon="6.15844049"><ele></ele><time>2014-4-20T19:24:45Z</time></trkpt>
<trkpt lat="46.10795659" lon="6.15805987"><ele></ele><time>2014-4-20T19:24:48Z</time></trkpt>
<trkpt lat="46.10778795" lon="6.15781227"><ele></ele><time>2014-4-20T19:24:51Z</time></trkpt>
<trkpt lat="46.10767814" lon="6.15765394"><ele></ele><time>2014-4-20T19:24:54Z</time></trkpt>
<trkpt lat="46.10765409" lon="6.15762594"><ele></ele><time>2014-4-20T19:24:57Z</time></trkpt>
<trkpt lat="46.10763104" lon="6.15757045"><ele></ele><time>2014-4-20T19:25:0Z</time></trkpt>
<trkpt lat="46.10762567" lon="6.15752377"><ele></ele><time>2014-4-20T19:25:3Z</time></trkpt>
<trkpt lat="46.10765425" lon="6.15742385"><ele></ele><time>2014-4-20T19:25:6Z</time></trkpt>
<trkpt lat="46.10758150" lon="6.15736904"><ele></ele><time>2014-4-20T19:25:9Z</time></trkpt>
<trkpt lat="46.10749072" lon="6.15730852"><ele></ele><time>2014-4-20T19:25:12Z</time></trkpt>
<trkpt lat="46.10748360" lon="6.15730533"><ele></ele><time>2014-4-20T19:25:15Z</time></trkpt>
<trkpt lat="46.10738553" lon="6.15725638"><ele></ele><time>2014-4-20T19:25:18Z</time></trkpt>
<trkpt lat="46.10732828" lon="6.15723208"><ele></ele><time>2014-4-20T19:25:21Z</time></trkpt>
<trkpt lat="46.10725427" lon="6.15714465"><ele></ele><time>2014-4-20T19:25:24Z</time></trkpt>
<trkpt lat="46.10719719" lon="6.15709470"><ele></ele><time>2014-4-20T19:25:27Z</time></trkpt>
<trkpt lat="46.10718202" lon="6.15707466"><ele></ele><time>2014-4-20T19:25:30Z</time></trkpt>
<trkpt lat="46.10704212" lon="6.15696235"><ele></ele><time>2014-4-20T19:25:33Z</time></trkpt>
<trkpt lat="46.10663904" lon="6.15664979"><ele></ele><time>2014-4-20T19:25:36Z</time></trkpt>
<trkpt lat="46.10629848" lon="6.15647226"><ele></ele><time>2014-4-20T19:25:39Z</time></trkpt>
<trkpt lat="46.10626244" lon="6.15645532"><ele></ele><time>2014-4-20T19:25:42Z</time></trkpt>
<trkpt lat="46.10610947" lon="6.15641543"><ele></ele><time>2014-4-20T19:25:45Z</time></trkpt>
<trkpt lat="46.10596178" lon="6.15636874"><ele></ele><time>2014-4-20T19:25:48Z</time></trkpt>
<trkpt lat="46.10578006" lon="6.15621694"><ele></ele><time>2014-4-20T19:25:51Z</time></trkpt>
<trkpt lat="46.10566825" lon="6.15601259"><ele></ele><time>2014-4-20T19:25:54Z</time></trkpt>
<trkpt lat="46.10559658" lon="6.15589064"><ele></ele><time>2014-4-20T19:25:57Z</time></trkpt>
<trkpt lat="46.10545233" lon="6.15578729"><ele></ele><time>2014-4-20T19:26:0Z</time></trkpt>
<trkpt lat="46.10541184" lon="6.15584546"><ele></ele><time>2014-4-20T19:26:3Z</time></trkpt>
<trkpt lat="46.10533993" lon="6.15581562"><ele></ele><time>2014-4-20T19:26:6Z</time></trkpt>
<trkpt lat="46.10531218" lon="6.15582819"><ele></ele><time>2014-4-20T19:26:9Z</time></trkpt>
<trkpt lat="46.10528218" lon="6.15585065"><ele></ele><time>2014-4-20T19:26:12Z</time></trkpt>
<trkpt lat="46.10527463" lon="6.15584236"><ele></ele><time>2014-4-20T19:26:15Z</time></trkpt>
<trkpt lat="46.10526818" lon="6.15584093"><ele></ele><time>2014-4-20T19:26:18Z</time></trkpt>
<trkpt lat="46.10511647" lon="6.15588795"><ele></ele><time>2014-4-20T19:26:21Z</time></trkpt>
<trkpt lat="46.10503935" lon="6.15588468"><ele></ele><time>2014-4-20T19:26:24Z</time></trkpt>
<trkpt lat="46.10489988" lon="6.15594143"><ele></ele><time>2014-4-20T19:26:27Z</time></trkpt>
<trkpt lat="46.10458296" lon="6.15620462"><ele></ele><time>2014-4-20T19:26:30Z</time></trkpt>
<trkpt lat="46.10450702" lon="6.15626455"><ele></ele><time>2014-4-20T19:26:33Z</time></trkpt>
<trkpt lat="46.10430828" lon="6.15632289"><ele></ele><time>2014-4-20T19:26:36Z</time></trkpt>
<trkpt lat="46.10417895" lon="6.15630822"><ele></ele><time>2014-4-20T19:26:39Z</time></trkpt>
<trkpt lat="46.10410879" lon="6.15629456"><ele></ele><time>2014-4-20T19:26:42Z</time></trkpt>
<trkpt lat="46.10396639" lon="6.15624838"><ele></ele><time>2014-4-20T19:26:45Z</time></trkpt>
<trkpt lat="46.10373404" lon="6.15605475"><ele></ele><time>2014-4-20T19:26:48Z</time></trkpt>
<trkpt lat="46.10372297" lon="6.15602273"><ele></ele><time>2014-4-20T19:26:51Z</time></trkpt>
<trkpt lat="46.10370747" lon="6.15596808"><ele></ele><time>2014-4-20T19:26:54Z</time></trkpt>
<trkpt lat="46.10361862" lon="6.15579852"><ele></ele><time>2014-4-20T19:26:57Z</time></trkpt>
<trkpt lat="46.10310414" lon="6.15565603"><ele></ele><time>2014-4-20T19:27:0Z</time></trkpt>
<trkpt lat="46.10226536" lon="6.15543223"><ele></ele><time>2014-4-20T19:27:3Z</time></trkpt>
<trkpt lat="46.10187158" lon="6.15522394"><ele></ele><time>2014-4-20T19:27:6Z</time></trkpt>
<trkpt lat="46.10159908" lon="6.15505965"><ele></ele><time>2014-4-20T19:27:9Z</time></trkpt>
<trkpt lat="46.10128996" lon="6.15496234"><ele></ele><time>2014-4-20T19:27:12Z</time></trkpt>
<trkpt lat="46.10098570" lon="6.15462413"><ele></ele><time>2014-4-20T19:27:15Z</time></trkpt>
<trkpt lat="46.10098352" lon="6.15427176"><ele></ele><time>2014-4-20T19:27:18Z</time></trkpt>
<trkpt lat="46.10104714" lon="6.15413278"><ele></ele><time>2014-4-20T19:27:21Z</time></trkpt>
<trkpt lat="46.10113766" lon="6.15367547"><ele></ele><time>2014-4-20T19:27:24Z</time></trkpt>
<trkpt lat="46.10121938" lon="6.15303936"><ele></ele><time>2014-4-20T19:27:27Z</time></trkpt>
<trkpt lat="46.10131335" lon="6.15236504"><ele></ele><time>2014-4-20T19:27:30Z</time></trkpt>
<trkpt lat="46.10110397" lon="6.15182818"><ele></ele><time>2014-4-20T19:27:33Z</time></trkpt>
<trkpt lat="46.10081412" lon="6.15114187"><ele></ele><time>2014-4-20T19:27:36Z</time></trkpt>
<trkpt lat="46.10061823" lon="6.15058263"><ele></ele><time>2014-4-20T19:27:39Z</time></trkpt>
<trkpt lat="46.10038346" lon="6.14991535"><ele></ele><time>2014-4-20T19:27:42Z</time></trkpt>
<trkpt lat="46.10011155" lon="6.14941545"><ele></ele><time>2014-4-20T19:27:45Z</time></trkpt>
<trkpt lat="46.09999169" lon="6.14909492"><ele></ele><time>2014-4-20T19:27:48Z</time></trkpt>
<trkpt lat="46.09992715" lon="6.14880826"><ele></ele><time>2014-4-20T19:27:51Z</time></trkpt>
<trkpt lat="46.09953370" lon="6.14852269"><ele></ele><time>2014-4-20T19:27:54Z</time></trkpt>
<trkpt lat="46.09902006" lon="6.14811852"><ele></ele><time>2014-4-20T19:27:57Z</time></trkpt>
<trkpt lat="46.09865846" lon="6.14742433"><ele></ele><time>2014-4-20T19:28:0Z</time></trkpt>
<trkpt lat="46.09832712" lon="6.14686634"><ele></ele><time>2014-4-20T19:28:3Z</time></trkpt>
<trkpt lat="46.09805983" lon="6.14650659"><ele></ele><time>2014-4-20T19:28:6Z</time></trkpt>
<trkpt lat="46.09791130" lon="6.14633468"><ele></ele><time>2014-4-20T19:28:9Z</time></trkpt>
<trkpt lat="46.09741182" lon="6.14615405"><ele></ele><time>2014-4-20T19:28:12Z</time></trkpt>
<trkpt lat="46.09696507" lon="6.14653023"><ele></ele><time>2014-4-20T19:28:15Z</time></trkpt>
<trkpt lat="46.09664605" lon="6.14678864"><ele></ele><time>2014-4-20T19:28:18Z</time></trkpt>
<trkpt lat="46.09659618" lon="6.14680993"><ele></ele><time>2014-4-20T19:28:21Z</time></trkpt>
<trkpt lat="46.09642309" lon="6.14686802"><ele></ele><time>2014-4-20T19:28:24Z</time></trkpt>
<trkpt lat="46.09627875" lon="6.14685939"><ele></ele><time>2014-4-20T19:28:27Z</time></trkpt>
<trkpt lat="46.09609435" lon="6.14688747"><ele></ele><time>2014-4-20T19:28:30Z</time></trkpt>
<trkpt lat="46.09567090" lon="6.14696324"><ele></ele><time>2014-4-20T19:28:33Z</time></trkpt>
<trkpt lat="46.09541894" lon="6.14672519"><ele></ele><time>2014-4-20T19:28:36Z</time></trkpt>
<trkpt lat="46.09531207" lon="6.14645580"><ele></ele><time>2014-4-20T19:28:39Z</time></trkpt>
<trkpt lat="46.09502088" lon="6.14535936"><ele></ele><time>2014-4-20T19:28:42Z</time></trkpt>
<trkpt lat="46.09469675" lon="6.14452570"><ele></ele><time>2014-4-20T19:28:45Z</time></trkpt>
<trkpt lat="46.09427322" lon="6.14392078"><ele></ele><time>2014-4-20T19:28:48Z</time></trkpt>
<trkpt lat="46.09371180" lon="6.14360939"><ele></ele><time>2014-4-20T19:28:51Z</time></trkpt>
<trkpt lat="46.09330125" lon="6.14295853"><ele></ele><time>2014-4-20T19:28:54Z</time></trkpt>
<trkpt lat="46.09293287" lon="6.14255888"><ele></ele><time>2014-4-20T19:28:57Z</time></trkpt>
<trkpt lat="46.09259935" lon="6.14179353"><ele></ele><time>2014-4-20T19:29:0Z</time></trkpt>
<trkpt lat="46.09236709" lon="6.14079852"><ele></ele><time>2014-4-20T19:29:3Z</time></trkpt>
<trkpt lat="46.09228402" lon="6.14042359"><ele></ele><time>2014-4-20T19:29:6Z</time></trkpt>
<trkpt lat="46.09225083" lon="6.14010332"><ele></ele><time>2014-4-20T19:29:9Z</time></trkpt>
<trkpt lat="46.09213734" lon="6.13971960"><ele></ele><time>2014-4-20T19:29:12Z</time></trkpt>
<trkpt lat="46.09207632" lon="6.13989294"><ele></ele><time>2014-4-20T19:29:15Z</time></trkpt>
<trkpt lat="46.09206936" lon="6.13987592"><ele></ele><time>2014-4-20T19:29:18Z</time></trkpt>
<trkpt lat="46.09206827" lon="6.13986016"><ele></ele><time>2014-4-20T19:29:21Z</time></trkpt>
<trkpt lat="46.09210976" lon="6.13978104"><ele></ele><time>2014-4-20T19:29:24Z</time></trkpt>
<trkpt lat="46.09212720" lon="6.13972873"><ele></ele><time>2014-4-20T19:29:27Z</time></trkpt>
<trkpt lat="46.09214857" lon="6.13966377"><ele></ele><time>2014-4-20T19:29:30Z</time></trkpt>
<trkpt lat="46.09226475" lon="6.13951324"><ele></ele><time>2014-4-20T19:29:33Z</time></trkpt>
<trkpt lat="46.09236198" lon="6.13931165"><ele></ele><time>2014-4-20T19:29:36Z</time></trkpt>
<trkpt lat="46.09245577" lon="6.13908978"><ele></ele><time>2014-4-20T19:29:39Z</time></trkpt>
<trkpt lat="46.09253104" lon="6.13892365"><ele></ele><time>2014-4-20T19:29:42Z</time></trkpt>
<trkpt lat="46.09256163" lon="6.13885383"><ele></ele><time>2014-4-20T19:29:45Z</time></trkpt>
<trkpt lat="46.09267018" lon="6.13863540"><ele></ele><time>2014-4-20T19:29:48Z</time></trkpt>
<trkpt lat="46.09268175" lon="6.13843080"><ele></ele><time>2014-4-20T19:29:51Z</time></trkpt>
<trkpt lat="46.09266842" lon="6.13829836"><ele></ele><time>2014-4-20T19:29:54Z</time></trkpt>
<trkpt lat="46.09263908" lon="6.13816165"><ele></ele><time>2014-4-20T19:29:57Z</time></trkpt>
<trkpt lat="46.09262542" lon="6.13803660"><ele></ele><time>2014-4-20T19:30:0Z</time></trkpt>
<trkpt lat="46.09260480" lon="6.13801690"><ele></ele><time>2014-4-20T19:30:3Z</time></trkpt>
<trkpt lat="46.09259726" lon="6.13795093"><ele></ele><time>2014-4-20T19:30:6Z</time></trkpt>
<trkpt lat="46.09260824" lon="6.13785856"><ele></ele><time>2014-4-20T19:30:9Z</time></trkpt>
<trkpt lat="46.09264679" lon="6.13779486"><ele></ele><time>2014-4-20T19:30:12Z</time></trkpt>
<trkpt lat="46.09259843" lon="6.13763577"><ele></ele><time>2014-4-20T19:30:15Z</time></trkpt>
<trkpt lat="46.09262332" lon="6.13759764"><ele></ele><time>2014-4-20T19:30:18Z</time></trkpt>
<trkpt lat="46.09258963" lon="6.13743427"><ele></ele><time>2014-4-20T19:30:21Z</time></trkpt>
<trkpt lat="46.09254043" lon="6.13713747"><ele></ele><time>2014-4-20T19:30:24Z</time></trkpt>
<trkpt lat="46.09249097" lon="6.13698157"><ele></ele><time>2014-4-20T19:30:27Z</time></trkpt>
<trkpt lat="46.09243046" lon="6.13685349"><ele></ele><time>2014-4-20T19:30:30Z</time></trkpt>
<trkpt lat="46.09239978" lon="6.13679046"><ele></ele><time>2014-4-20T19:30:33Z</time></trkpt>
<trkpt lat="46.09223449" lon="6.13625578"><ele></ele><time>2014-4-20T19:30:36Z</time></trkpt>
<trkpt lat="46.09215863" lon="6.13611270"><ele></ele><time>2014-4-20T19:30:39Z</time></trkpt>
<trkpt lat="46.09203248" lon="6.13580885"><ele></ele><time>2014-4-20T19:30:42Z</time></trkpt>
<trkpt lat="46.09199032" lon="6.13572026"><ele></ele><time>2014-4-20T19:30:45Z</time></trkpt>
<trkpt lat="46.09193785" lon="6.13558036"><ele></ele><time>2014-4-20T19:30:48Z</time></trkpt>
<trkpt lat="46.09180248" lon="6.13534408"><ele></ele><time>2014-4-20T19:30:51Z</time></trkpt>
<trkpt lat="46.09177524" lon="6.13531189"><ele></ele><time>2014-4-20T19:30:54Z</time></trkpt>
<trkpt lat="46.09147366" lon="6.13500436"><ele></ele><time>2014-4-20T19:30:57Z</time></trkpt>
<trkpt lat="46.09133394" lon="6.13477536"><ele></ele><time>2014-4-20T19:31:0Z</time></trkpt>
<trkpt lat="46.09128599" lon="6.13467948"><ele></ele><time>2014-4-20T19:31:3Z</time></trkpt>
<trkpt lat="46.09111534" lon="6.13443187"><ele></ele><time>2014-4-20T19:31:6Z</time></trkpt>
<trkpt lat="46.09107896" lon="6.13439022"><ele></ele><time>2014-4-20T19:31:9Z</time></trkpt>
<trkpt lat="46.09096128" lon="6.13419953"><ele></ele><time>2014-4-20T19:31:12Z</time></trkpt>
<trkpt lat="46.09074527" lon="6.13388638"><ele></ele><time>2014-4-20T19:31:15Z</time></trkpt>
<trkpt lat="46.09069037" lon="6.13380323"><ele></ele><time>2014-4-20T19:31:18Z</time></trkpt>
<trkpt lat="46.09057495" lon="6.13362009"><ele></ele><time>2014-4-20T19:31:21Z</time></trkpt>
<trkpt lat="46.09040447" lon="6.13335916"><ele></ele><time>2014-4-20T19:31:24Z</time></trkpt>
<trkpt lat="46.09038183" lon="6.13332278"><ele></ele><time>2014-4-20T19:31:27Z</time></trkpt>
<trkpt lat="46.09029064" lon="6.13318222"><ele></ele><time>2014-4-20T19:31:30Z</time></trkpt>
<trkpt lat="46.09014228" lon="6.13295984"><ele></ele><time>2014-4-20T19:31:33Z</time></trkpt>
<trkpt lat="46.08988018" lon="6.13242717"><ele></ele><time>2014-4-20T19:31:36Z</time></trkpt>
<trkpt lat="46.08962336" lon="6.13195234"><ele></ele><time>2014-4-20T19:31:39Z</time></trkpt>
<trkpt lat="46.08956787" lon="6.13182426"><ele></ele><time>2014-4-20T19:31:42Z</time></trkpt>
<trkpt lat="46.08947969" lon="6.13160156"><ele></ele><time>2014-4-20T19:31:45Z</time></trkpt>
<trkpt lat="46.08941750" lon="6.13143124"><ele></ele><time>2014-4-20T19:31:48Z</time></trkpt>
<trkpt lat="46.08922136" lon="6.13098515"><ele></ele><time>2014-4-20T19:31:51Z</time></trkpt>
<trkpt lat="46.08920066" lon="6.13092958"><ele></ele><time>2014-4-20T19:31:54Z</time></trkpt>
<trkpt lat="46.08898323" lon="6.13059623"><ele></ele><time>2014-4-20T19:31:57Z</time></trkpt>
<trkpt lat="46.08895565" lon="6.13045089"><ele></ele><time>2014-4-20T19:32:0Z</time></trkpt>
<trkpt lat="46.08893747" lon="6.13042398"><ele></ele><time>2014-4-20T19:32:3Z</time></trkpt>
<trkpt lat="46.08888592" lon="6.13039146"><ele></ele><time>2014-4-20T19:32:6Z</time></trkpt>
<trkpt lat="46.08886312" lon="6.13036363"><ele></ele><time>2014-4-20T19:32:9Z</time></trkpt>
<trkpt lat="46.08883319" lon="6.13031493"><ele></ele><time>2014-4-20T19:32:12Z</time></trkpt>
<trkpt lat="46.08881786" lon="6.13028593"><ele></ele><time>2014-4-20T19:32:15Z</time></trkpt>
<trkpt lat="46.08879313" lon="6.13027202"><ele></ele><time>2014-4-20T19:32:18Z</time></trkpt>
<trkpt lat="46.08875197" lon="6.13027269"><ele></ele><time>2014-4-20T19:32:21Z</time></trkpt>
<trkpt lat="46.08873479" lon="6.13025509"><ele></ele><time>2014-4-20T19:32:24Z</time></trkpt>
<trkpt lat="46.08869338" lon="6.13022936"><ele></ele><time>2014-4-20T19:32:27Z</time></trkpt>
<trkpt lat="46.08860353" lon="6.13004638"><ele></ele><time>2014-4-20T19:32:30Z</time></trkpt>
<trkpt lat="46.08832374" lon="6.12974354"><ele></ele><time>2014-4-20T19:32:33Z</time></trkpt>
<trkpt lat="46.08822215" lon="6.12962519"><ele></ele><time>2014-4-20T19:32:36Z</time></trkpt>
<trkpt lat="46.08813155" lon="6.12950935"><ele></ele><time>2014-4-20T19:32:39Z</time></trkpt>
<trkpt lat="46.08810196" lon="6.12941229"><ele></ele><time>2014-4-20T19:32:42Z</time></trkpt>
<trkpt lat="46.08808637" lon="6.12937147"><ele></ele><time>2014-4-20T19:32:45Z</time></trkpt>
<trkpt lat="46.08796366" lon="6.12911465"><ele></ele><time>2014-4-20T19:32:48Z</time></trkpt>
<trkpt lat="46.08784505" lon="6.12883327"><ele></ele><time>2014-4-20T19:32:51Z</time></trkpt>
<trkpt lat="46.08773265" lon="6.12859715"><ele></ele><time>2014-4-20T19:32:54Z</time></trkpt>
<trkpt lat="46.08758052" lon="6.12827394"><ele></ele><time>2014-4-20T19:32:57Z</time></trkpt>
<trkpt lat="46.08753777" lon="6.12819624"><ele></ele><time>2014-4-20T19:33:0Z</time></trkpt>
<trkpt lat="46.08749670" lon="6.12812567"><ele></ele><time>2014-4-20T19:33:3Z</time></trkpt>
<trkpt lat="46.08742369" lon="6.12801536"><ele></ele><time>2014-4-20T19:33:6Z</time></trkpt>
<trkpt lat="46.08737240" lon="6.12791888"><ele></ele><time>2014-4-20T19:33:9Z</time></trkpt>
<trkpt lat="46.08723602" lon="6.12764974"><ele></ele><time>2014-4-20T19:33:12Z</time></trkpt>
<trkpt lat="46.08716427" lon="6.12753307"><ele></ele><time>2014-4-20T19:33:15Z</time></trkpt>
<trkpt lat="46.08708682" lon="6.12743516"><ele></ele><time>2014-4-20T19:33:18Z</time></trkpt>
<trkpt lat="46.08696093" lon="6.12724682"><ele></ele><time>2014-4-20T19:33:21Z</time></trkpt>
<trkpt lat="46.08677309" lon="6.12694063"><ele></ele><time>2014-4-20T19:33:24Z</time></trkpt>
<trkpt lat="46.08663613" lon="6.12658373"><ele></ele><time>2014-4-20T19:33:27Z</time></trkpt>
<trkpt lat="46.08655524" lon="6.12631115"><ele></ele><time>2014-4-20T19:33:30Z</time></trkpt>
<trkpt lat="46.08647956" lon="6.12598912"><ele></ele><time>2014-4-20T19:33:33Z</time></trkpt>
<trkpt lat="46.08642817" lon="6.12575828"><ele></ele><time>2014-4-20T19:33:36Z</time></trkpt>
<trkpt lat="46.08639029" lon="6.12563456"><ele></ele><time>2014-4-20T19:33:39Z</time></trkpt>
<trkpt lat="46.08626154" lon="6.12524187"><ele></ele><time>2014-4-20T19:33:42Z</time></trkpt>
<trkpt lat="46.08609256" lon="6.12481783"><ele></ele><time>2014-4-20T19:33:45Z</time></trkpt>
<trkpt lat="46.08598620" lon="6.12462438"><ele></ele><time>2014-4-20T19:33:48Z</time></trkpt>
<trkpt lat="46.08587472" lon="6.12435875"><ele></ele><time>2014-4-20T19:33:51Z</time></trkpt>
<trkpt lat="46.08582283" lon="6.12423227"><ele></ele><time>2014-4-20T19:33:54Z</time></trkpt>
<trkpt lat="46.08575620" lon="6.12410369"><ele></ele><time>2014-4-20T19:33:57Z</time></trkpt>
<trkpt lat="46.08564187" lon="6.12388769"><ele></ele><time>2014-4-20T19:34:0Z</time></trkpt>
<trkpt lat="46.08560407" lon="6.12381997"><ele></ele><time>2014-4-20T19:34:3Z</time></trkpt>
<trkpt lat="46.08552595" lon="6.12369952"><ele></ele><time>2014-4-20T19:34:6Z</time></trkpt>
<trkpt lat="46.08534129" lon="6.12345317"><ele></ele><time>2014-4-20T19:34:9Z</time></trkpt>
<trkpt lat="46.08528597" lon="6.12328176"><ele></ele><time>2014-4-20T19:34:12Z</time></trkpt>
<trkpt lat="46.08531523" lon="6.12316475"><ele></ele><time>2014-4-20T19:34:15Z</time></trkpt>
<trkpt lat="46.08531112" lon="6.12293467"><ele></ele><time>2014-4-20T19:34:18Z</time></trkpt>
<trkpt lat="46.08530416" lon="6.12286644"><ele></ele><time>2014-4-20T19:34:21Z</time></trkpt>
<trkpt lat="46.08526158" lon="6.12256570"><ele></ele><time>2014-4-20T19:34:24Z</time></trkpt>
<trkpt lat="46.08529804" lon="6.12207142"><ele></ele><time>2014-4-20T19:34:27Z</time></trkpt>
<trkpt lat="46.08535705" lon="6.12154579"><ele></ele><time>2014-4-20T19:34:30Z</time></trkpt>
<trkpt lat="46.08538999" lon="6.12088915"><ele></ele><time>2014-4-20T19:34:33Z</time></trkpt>
<trkpt lat="46.08533216" lon="6.12019479"><ele></ele><time>2014-4-20T19:34:36Z</time></trkpt>
<trkpt lat="46.08514398" lon="6.11960177"><ele></ele><time>2014-4-20T19:34:39Z</time></trkpt>
<trkpt lat="46.08477778" lon="6.11903943"><ele></ele><time>2014-4-20T19:34:42Z</time></trkpt>
<trkpt lat="46.08437696" lon="6.11862562"><ele></ele><time>2014-4-20T19:34:45Z</time></trkpt>
<trkpt lat="46.08408686" lon="6.11842319"><ele></ele><time>2014-4-20T19:34:48Z</time></trkpt>
<trkpt lat="46.08377933" lon="6.11826285"><ele></ele><time>2014-4-20T19:34:51Z</time></trkpt>
<trkpt lat="46.08344103" lon="6.11814114"><ele></ele><time>2014-4-20T19:34:54Z</time></trkpt>
<trkpt lat="46.08322319" lon="6.11808507"><ele></ele><time>2014-4-20T19:34:57Z</time></trkpt>
<trkpt lat="46.08296519" lon="6.11805095"><ele></ele><time>2014-4-20T19:35:0Z</time></trkpt>
<trkpt lat="46.08267593" lon="6.11807903"><ele></ele><time>2014-4-20T19:35:3Z</time></trkpt>
<trkpt lat="46.08233605" lon="6.11818464"><ele></ele><time>2014-4-20T19:35:6Z</time></trkpt>
<trkpt lat="46.08201485" lon="6.11835480"><ele></ele><time>2014-4-20T19:35:9Z</time></trkpt>
<trkpt lat="46.08167673" lon="6.11865286"><ele></ele><time>2014-4-20T19:35:12Z</time></trkpt>
<trkpt lat="46.08147556" lon="6.11890448"><ele></ele><time>2014-4-20T19:35:15Z</time></trkpt>
<trkpt lat="46.08124967" lon="6.11926817"><ele></ele><time>2014-4-20T19:35:18Z</time></trkpt>
<trkpt lat="46.08112662" lon="6.11954243"><ele></ele><time>2014-4-20T19:35:21Z</time></trkpt>
<trkpt lat="46.08095479" lon="6.12007745"><ele></ele><time>2014-4-20T19:35:24Z</time></trkpt>
<trkpt lat="46.08085077" lon="6.12044315"><ele></ele><time>2014-4-20T19:35:27Z</time></trkpt>
<trkpt lat="46.08068624" lon="6.12094070"><ele></ele><time>2014-4-20T19:35:30Z</time></trkpt>
<trkpt lat="46.08056302" lon="6.12122459"><ele></ele><time>2014-4-20T19:35:33Z</time></trkpt>
<trkpt lat="46.08037879" lon="6.12162533"><ele></ele><time>2014-4-20T19:35:36Z</time></trkpt>
<trkpt lat="46.08021853" lon="6.12199288"><ele></ele><time>2014-4-20T19:35:39Z</time></trkpt>
<trkpt lat="46.08003178" lon="6.12247216"><ele></ele><time>2014-4-20T19:35:42Z</time></trkpt>
<trkpt lat="46.07987998" lon="6.12282730"><ele></ele><time>2014-4-20T19:35:45Z</time></trkpt>
<trkpt lat="46.07986204" lon="6.12294657"><ele></ele><time>2014-4-20T19:35:48Z</time></trkpt>
<trkpt lat="46.07980303" lon="6.12300935"><ele></ele><time>2014-4-20T19:35:51Z</time></trkpt>
<trkpt lat="46.07974403" lon="6.12300114"><ele></ele><time>2014-4-20T19:35:54Z</time></trkpt>
<trkpt lat="46.07973087" lon="6.12299326"><ele></ele><time>2014-4-20T19:35:57Z</time></trkpt>
<trkpt lat="46.07971896" lon="6.12296518"><ele></ele><time>2014-4-20T19:36:0Z</time></trkpt>
<trkpt lat="46.07969734" lon="6.12289863"><ele></ele><time>2014-4-20T19:36:3Z</time></trkpt>
<trkpt lat="46.07969709" lon="6.12289796"><ele></ele><time>2014-4-20T19:36:6Z</time></trkpt>
<trkpt lat="46.07968435" lon="6.12291262"><ele></ele><time>2014-4-20T19:36:9Z</time></trkpt>
<trkpt lat="46.07968912" lon="6.12289192"><ele></ele><time>2014-4-20T19:36:12Z</time></trkpt>
<trkpt lat="46.07969633" lon="6.12288404"><ele></ele><time>2014-4-20T19:36:15Z</time></trkpt>
<trkpt lat="46.07968066" lon="6.12292059"><ele></ele><time>2014-4-20T19:36:18Z</time></trkpt>
<trkpt lat="46.07965417" lon="6.12286543"><ele></ele><time>2014-4-20T19:36:21Z</time></trkpt>
<trkpt lat="46.07947078" lon="6.12233805"><ele></ele><time>2014-4-20T19:36:24Z</time></trkpt>
<trkpt lat="46.07933138" lon="6.12204166"><ele></ele><time>2014-4-20T19:36:27Z</time></trkpt>
<trkpt lat="46.07890449" lon="6.12144453"><ele></ele><time>2014-4-20T19:36:30Z</time></trkpt>
<trkpt lat="46.07851775" lon="6.12102879"><ele></ele><time>2014-4-20T19:36:33Z</time></trkpt>
<trkpt lat="46.07837845" lon="6.12075764"><ele></ele><time>2014-4-20T19:36:36Z</time></trkpt>
<trkpt lat="46.07830033" lon="6.12044717"><ele></ele><time>2014-4-20T19:36:39Z</time></trkpt>
<trkpt lat="46.07826487" lon="6.12030719"><ele></ele><time>2014-4-20T19:36:42Z</time></trkpt>
<trkpt lat="46.07824534" lon="6.12023938"><ele></ele><time>2014-4-20T19:36:45Z</time></trkpt>
<trkpt lat="46.07800663" lon="6.12003428"><ele></ele><time>2014-4-20T19:36:48Z</time></trkpt>
<trkpt lat="46.07795449" lon="6.11998432"><ele></ele><time>2014-4-20T19:36:51Z</time></trkpt>
<trkpt lat="46.07791560" lon="6.11975692"><ele></ele><time>2014-4-20T19:36:54Z</time></trkpt>
<trkpt lat="46.07766800" lon="6.11928024"><ele></ele><time>2014-4-20T19:36:57Z</time></trkpt>
<trkpt lat="46.07754176" lon="6.11897388"><ele></ele><time>2014-4-20T19:37:0Z</time></trkpt>
<trkpt lat="46.07743925" lon="6.11865353"><ele></ele><time>2014-4-20T19:37:3Z</time></trkpt>
<trkpt lat="46.07741210" lon="6.11857273"><ele></ele><time>2014-4-20T19:37:6Z</time></trkpt>
<trkpt lat="46.07720188" lon="6.11823938"><ele></ele><time>2014-4-20T19:37:9Z</time></trkpt>
<trkpt lat="46.07699049" lon="6.11816847"><ele></ele><time>2014-4-20T19:37:12Z</time></trkpt>
<trkpt lat="46.07684280" lon="6.11822354"><ele></ele><time>2014-4-20T19:37:15Z</time></trkpt>
<trkpt lat="46.07664842" lon="6.11826570"><ele></ele><time>2014-4-20T19:37:18Z</time></trkpt>
<trkpt lat="46.07651398" lon="6.11829814"><ele></ele><time>2014-4-20T19:37:21Z</time></trkpt>
<trkpt lat="46.07645287" lon="6.11833476"><ele></ele><time>2014-4-20T19:37:24Z</time></trkpt>
<trkpt lat="46.07632044" lon="6.11839084"><ele></ele><time>2014-4-20T19:37:27Z</time></trkpt>
<trkpt lat="46.07611575" lon="6.11838506"><ele></ele><time>2014-4-20T19:37:30Z</time></trkpt>
<trkpt lat="46.07605146" lon="6.11840249"><ele></ele><time>2014-4-20T19:37:33Z</time></trkpt>
<trkpt lat="46.07602925" lon="6.11840584"><ele></ele><time>2014-4-20T19:37:36Z</time></trkpt>
<trkpt lat="46.07595004" lon="6.11841758"><ele></ele><time>2014-4-20T19:37:39Z</time></trkpt>
<trkpt lat="46.07577654" lon="6.11817786"><ele></ele><time>2014-4-20T19:37:42Z</time></trkpt>
<trkpt lat="46.07574343" lon="6.11812279"><ele></ele><time>2014-4-20T19:37:45Z</time></trkpt>
<trkpt lat="46.07570487" lon="6.11806747"><ele></ele><time>2014-4-20T19:37:48Z</time></trkpt>
<trkpt lat="46.07538703" lon="6.11764032"><ele></ele><time>2014-4-20T19:37:51Z</time></trkpt>
<trkpt lat="46.07536222" lon="6.11759749"><ele></ele><time>2014-4-20T19:37:54Z</time></trkpt>
<trkpt lat="46.07512283" lon="6.11729482"><ele></ele><time>2014-4-20T19:37:57Z</time></trkpt>
<trkpt lat="46.07509936" lon="6.11726942"><ele></ele><time>2014-4-20T19:38:0Z</time></trkpt>
<trkpt lat="46.07503926" lon="6.11722735"><ele></ele><time>2014-4-20T19:38:3Z</time></trkpt>
<trkpt lat="46.07502426" lon="6.11722374"><ele></ele><time>2014-4-20T19:38:6Z</time></trkpt>
<trkpt lat="46.07491404" lon="6.11714118"><ele></ele><time>2014-4-20T19:38:9Z</time></trkpt>
<trkpt lat="46.07442177" lon="6.11691169"><ele></ele><time>2014-4-20T19:38:12Z</time></trkpt>
<trkpt lat="46.07393922" lon="6.11673810"><ele></ele><time>2014-4-20T19:38:15Z</time></trkpt>
<trkpt lat="46.07341284" lon="6.11657255"><ele></ele><time>2014-4-20T19:38:18Z</time></trkpt>
<trkpt lat="46.07300590" lon="6.11638396"><ele></ele><time>2014-4-20T19:38:21Z</time></trkpt>
<trkpt lat="46.07267523" lon="6.11630509"><ele></ele><time>2014-4-20T19:38:24Z</time></trkpt>
<trkpt lat="46.07222554" lon="6.11627223"><ele></ele><time>2014-4-20T19:38:27Z</time></trkpt>
<trkpt lat="46.07179304" lon="6.11618288"><ele></ele><time>2014-4-20T19:38:30Z</time></trkpt>
<trkpt lat="46.07165842" lon="6.11603787"><ele></ele><time>2014-4-20T19:38:33Z</time></trkpt>
<trkpt lat="46.07155357" lon="6.11592564"><ele></ele><time>2014-4-20T19:38:36Z</time></trkpt>
<trkpt lat="46.07150026" lon="6.11587359"><ele></ele><time>2014-4-20T19:38:39Z</time></trkpt>
<trkpt lat="46.07131879" lon="6.11576403"><ele></ele><time>2014-4-20T19:38:42Z</time></trkpt>
<trkpt lat="46.07121645" lon="6.11569279"><ele></ele><time>2014-4-20T19:38:45Z</time></trkpt>
<trkpt lat="46.07108887" lon="6.11539029"><ele></ele><time>2014-4-20T19:38:48Z</time></trkpt>
<trkpt lat="46.07105317" lon="6.11526422"><ele></ele><time>2014-4-20T19:38:51Z</time></trkpt>
<trkpt lat="46.07083037" lon="6.11475443"><ele></ele><time>2014-4-20T19:38:54Z</time></trkpt>
<trkpt lat="46.07081369" lon="6.11470456"><ele></ele><time>2014-4-20T19:38:57Z</time></trkpt>
<trkpt lat="46.07081428" lon="6.11462116"><ele></ele><time>2014-4-20T19:39:0Z</time></trkpt>
<trkpt lat="46.07079643" lon="6.11454640"><ele></ele><time>2014-4-20T19:39:3Z</time></trkpt>
<trkpt lat="46.07079785" lon="6.11454288"><ele></ele><time>2014-4-20T19:39:6Z</time></trkpt>
<trkpt lat="46.07064480" lon="6.11435269"><ele></ele><time>2014-4-20T19:39:9Z</time></trkpt>
<trkpt lat="46.07043659" lon="6.11411045"><ele></ele><time>2014-4-20T19:39:12Z</time></trkpt>
<trkpt lat="46.07008019" lon="6.11405035"><ele></ele><time>2014-4-20T19:39:15Z</time></trkpt>
<trkpt lat="46.06999302" lon="6.11408237"><ele></ele><time>2014-4-20T19:39:18Z</time></trkpt>
<trkpt lat="46.06996285" lon="6.11395455"><ele></ele><time>2014-4-20T19:39:21Z</time></trkpt>
<trkpt lat="46.06965875" lon="6.11367032"><ele></ele><time>2014-4-20T19:39:24Z</time></trkpt>
<trkpt lat="46.06940998" lon="6.11344795"><ele></ele><time>2014-4-20T19:39:27Z</time></trkpt>
<trkpt lat="46.06905718" lon="6.11339908"><ele></ele><time>2014-4-20T19:39:30Z</time></trkpt>
<trkpt lat="46.06872627" lon="6.11338349"><ele></ele><time>2014-4-20T19:39:33Z</time></trkpt>
<trkpt lat="46.06829686" lon="6.11324988"><ele></ele><time>2014-4-20T19:39:36Z</time></trkpt>
<trkpt lat="46.06798983" lon="6.11295828"><ele></ele><time>2014-4-20T19:39:39Z</time></trkpt>
<trkpt lat="46.06770677" lon="6.11278888"><ele></ele><time>2014-4-20T19:39:42Z</time></trkpt>
<trkpt lat="46.06769043" lon="6.11245712"><ele></ele><time>2014-4-20T19:39:45Z</time></trkpt>
<trkpt lat="46.06768490" lon="6.11228479"><ele></ele><time>2014-4-20T19:39:48Z</time></trkpt>
<trkpt lat="46.06763058" lon="6.11191657"><ele></ele><time>2014-4-20T19:39:51Z</time></trkpt>
<trkpt lat="46.06752153" lon="6.11156353"><ele></ele><time>2014-4-20T19:39:54Z</time></trkpt>
<trkpt lat="46.06740922" lon="6.11100303"><ele></ele><time>2014-4-20T19:39:57Z</time></trkpt>
<trkpt lat="46.06746839" lon="6.11041764"><ele></ele><time>2014-4-20T19:40:0Z</time></trkpt>
<trkpt lat="46.06749488" lon="6.11003928"><ele></ele><time>2014-4-20T19:40:3Z</time></trkpt>
<trkpt lat="46.06749807" lon="6.10980953"><ele></ele><time>2014-4-20T19:40:6Z</time></trkpt>
<trkpt lat="46.06751156" lon="6.10964969"><ele></ele><time>2014-4-20T19:40:9Z</time></trkpt>
<trkpt lat="46.06757526" lon="6.10905566"><ele></ele><time>2014-4-20T19:40:12Z</time></trkpt>
<trkpt lat="46.06761759" lon="6.10883228"><ele></ele><time>2014-4-20T19:40:15Z</time></trkpt>
<trkpt lat="46.06767442" lon="6.10848695"><ele></ele><time>2014-4-20T19:40:18Z</time></trkpt>
<trkpt lat="46.06768725" lon="6.10837346"><ele></ele><time>2014-4-20T19:40:21Z</time></trkpt>
<trkpt lat="46.06769102" lon="6.10814857"><ele></ele><time>2014-4-20T19:40:24Z</time></trkpt>
<trkpt lat="46.06768683" lon="6.10794632"><ele></ele><time>2014-4-20T19:40:27Z</time></trkpt>
<trkpt lat="46.06758406" lon="6.10737509"><ele></ele><time>2014-4-20T19:40:30Z</time></trkpt>
<trkpt lat="46.06746412" lon="6.10711450"><ele></ele><time>2014-4-20T19:40:33Z</time></trkpt>
<trkpt lat="46.06738038" lon="6.10677402"><ele></ele><time>2014-4-20T19:40:36Z</time></trkpt>
<trkpt lat="46.06733847" lon="6.10646817"><ele></ele><time>2014-4-20T19:40:39Z</time></trkpt>
<trkpt lat="46.06724979" lon="6.10623834"><ele></ele><time>2014-4-20T19:40:42Z</time></trkpt>
<trkpt lat="46.06709733" lon="6.10610087"><ele></ele><time>2014-4-20T19:40:45Z</time></trkpt>
<trkpt lat="46.06678778" lon="6.10593332"><ele></ele><time>2014-4-20T19:40:48Z</time></trkpt>
<trkpt lat="46.06674269" lon="6.10589937"><ele></ele><time>2014-4-20T19:40:51Z</time></trkpt>
<trkpt lat="46.06655343" lon="6.10564456"><ele></ele><time>2014-4-20T19:40:54Z</time></trkpt>
<trkpt lat="46.06645435" lon="6.10537416"><ele></ele><time>2014-4-20T19:40:57Z</time></trkpt>
<trkpt lat="46.06644798" lon="6.10491877"><ele></ele><time>2014-4-20T19:41:0Z</time></trkpt>
<trkpt lat="46.06647564" lon="6.10476748"><ele></ele><time>2014-4-20T19:41:3Z</time></trkpt>
<trkpt lat="46.06647732" lon="6.10462650"><ele></ele><time>2014-4-20T19:41:6Z</time></trkpt>
<trkpt lat="46.06646257" lon="6.10455349"><ele></ele><time>2014-4-20T19:41:9Z</time></trkpt>
<trkpt lat="46.06634857" lon="6.10416197"><ele></ele><time>2014-4-20T19:41:12Z</time></trkpt>
<trkpt lat="46.06622142" lon="6.10387146"><ele></ele><time>2014-4-20T19:41:15Z</time></trkpt>
<trkpt lat="46.06619074" lon="6.10370264"><ele></ele><time>2014-4-20T19:41:18Z</time></trkpt>
<trkpt lat="46.06588874" lon="6.10326016"><ele></ele><time>2014-4-20T19:41:21Z</time></trkpt>
<trkpt lat="46.06552689" lon="6.10281064"><ele></ele><time>2014-4-20T19:41:24Z</time></trkpt>
<trkpt lat="46.06523328" lon="6.10270176"><ele></ele><time>2014-4-20T19:41:27Z</time></trkpt>
<trkpt lat="46.06503345" lon="6.10261568"><ele></ele><time>2014-4-20T19:41:30Z</time></trkpt>
<trkpt lat="46.06492868" lon="6.10260763"><ele></ele><time>2014-4-20T19:41:33Z</time></trkpt>
<trkpt lat="46.06477110" lon="6.10256555"><ele></ele><time>2014-4-20T19:41:36Z</time></trkpt>
<trkpt lat="46.06456096" lon="6.10252733"><ele></ele><time>2014-4-20T19:41:39Z</time></trkpt>
<trkpt lat="46.06433809" lon="6.10248744"><ele></ele><time>2014-4-20T19:41:42Z</time></trkpt>
<trkpt lat="46.06424832" lon="6.10247646"><ele></ele><time>2014-4-20T19:41:45Z</time></trkpt>
<trkpt lat="46.06401178" lon="6.10259632"><ele></ele><time>2014-4-20T19:41:48Z</time></trkpt>
<trkpt lat="46.06397859" lon="6.10262875"><ele></ele><time>2014-4-20T19:41:51Z</time></trkpt>
<trkpt lat="46.06384138" lon="6.10274887"><ele></ele><time>2014-4-20T19:41:54Z</time></trkpt>
<trkpt lat="46.06373132" lon="6.10283704"><ele></ele><time>2014-4-20T19:41:57Z</time></trkpt>
<trkpt lat="46.06351482" lon="6.10291022"><ele></ele><time>2014-4-20T19:42:0Z</time></trkpt>
<trkpt lat="46.06327199" lon="6.10300208"><ele></ele><time>2014-4-20T19:42:3Z</time></trkpt>
<trkpt lat="46.06307527" lon="6.10311474"><ele></ele><time>2014-4-20T19:42:6Z</time></trkpt>
<trkpt lat="46.06304023" lon="6.10314533"><ele></ele><time>2014-4-20T19:42:9Z</time></trkpt>
<trkpt lat="46.06273513" lon="6.10315086"><ele></ele><time>2014-4-20T19:42:12Z</time></trkpt>
<trkpt lat="46.06240187" lon="6.10310250"><ele></ele><time>2014-4-20T19:42:15Z</time></trkpt>
<trkpt lat="46.06228528" lon="6.10314709"><ele></ele><time>2014-4-20T19:42:18Z</time></trkpt>
<trkpt lat="46.06203239" lon="6.10321423"><ele></ele><time>2014-4-20T19:42:21Z</time></trkpt>
<trkpt lat="46.06197498" lon="6.10322597"><ele></ele><time>2014-4-20T19:42:24Z</time></trkpt>
<trkpt lat="46.06170248" lon="6.10315899"><ele></ele><time>2014-4-20T19:42:27Z</time></trkpt>
<trkpt lat="46.06136687" lon="6.10292455"><ele></ele><time>2014-4-20T19:42:30Z</time></trkpt>
<trkpt lat="46.06131943" lon="6.10288558"><ele></ele><time>2014-4-20T19:42:33Z</time></trkpt>
<trkpt lat="46.06115347" lon="6.10279346"><ele></ele><time>2014-4-20T19:42:36Z</time></trkpt>
<trkpt lat="46.06091685" lon="6.10273688"><ele></ele><time>2014-4-20T19:42:39Z</time></trkpt>
<trkpt lat="46.06080704" lon="6.10269195"><ele></ele><time>2014-4-20T19:42:42Z</time></trkpt>
<trkpt lat="46.06072733" lon="6.10265457"><ele></ele><time>2014-4-20T19:42:45Z</time></trkpt>
<trkpt lat="46.06052038" lon="6.10253219"><ele></ele><time>2014-4-20T19:42:48Z</time></trkpt>
<trkpt lat="46.06030497" lon="6.10251627"><ele></ele><time>2014-4-20T19:42:51Z</time></trkpt>
<trkpt lat="46.06013155" lon="6.10253345"><ele></ele><time>2014-4-20T19:42:54Z</time></trkpt>
<trkpt lat="46.05994823" lon="6.10249305"><ele></ele><time>2014-4-20T19:42:57Z</time></trkpt>
<trkpt lat="46.05974422" lon="6.10244033"><ele></ele><time>2014-4-20T19:43:0Z</time></trkpt>
<trkpt lat="46.05966149" lon="6.10242499"><ele></ele><time>2014-4-20T19:43:3Z</time></trkpt>
<trkpt lat="46.05943635" lon="6.10240580"><ele></ele><time>2014-4-20T19:43:6Z</time></trkpt>
<trkpt lat="46.05940475" lon="6.10224637"><ele></ele><time>2014-4-20T19:43:9Z</time></trkpt>
<trkpt lat="46.05940567" lon="6.10223774"><ele></ele><time>2014-4-20T19:43:12Z</time></trkpt>
<trkpt lat="46.05946544" lon="6.10184438"><ele></ele><time>2014-4-20T19:43:15Z</time></trkpt>
<trkpt lat="46.05962595" lon="6.10134004"><ele></ele><time>2014-4-20T19:43:18Z</time></trkpt>
<trkpt lat="46.05963567" lon="6.10129184"><ele></ele><time>2014-4-20T19:43:21Z</time></trkpt>
<trkpt lat="46.05968932" lon="6.10117776"><ele></ele><time>2014-4-20T19:43:24Z</time></trkpt>
<trkpt lat="46.05983675" lon="6.10039263"><ele></ele><time>2014-4-20T19:43:27Z</time></trkpt>
<trkpt lat="46.05984463" lon="6.10029456"><ele></ele><time>2014-4-20T19:43:30Z</time></trkpt>
<trkpt lat="46.05985989" lon="6.10010262"><ele></ele><time>2014-4-20T19:43:33Z</time></trkpt>
<trkpt lat="46.05986450" lon="6.10000296"><ele></ele><time>2014-4-20T19:43:36Z</time></trkpt>
<trkpt lat="46.05988545" lon="6.09888154"><ele></ele><time>2014-4-20T19:43:39Z</time></trkpt>
<trkpt lat="46.05992720" lon="6.09866839"><ele></ele><time>2014-4-20T19:43:42Z</time></trkpt>
<trkpt lat="46.05996190" lon="6.09834468"><ele></ele><time>2014-4-20T19:43:45Z</time></trkpt>
<trkpt lat="46.05993608" lon="6.09802198"><ele></ele><time>2014-4-20T19:43:48Z</time></trkpt>
<trkpt lat="46.05990557" lon="6.09794696"><ele></ele><time>2014-4-20T19:43:51Z</time></trkpt>
<trkpt lat="46.05963592" lon="6.09766139"><ele></ele><time>2014-4-20T19:43:54Z</time></trkpt>
<trkpt lat="46.05955303" lon="6.09758276"><ele></ele><time>2014-4-20T19:43:57Z</time></trkpt>
<trkpt lat="46.05932789" lon="6.09738738"><ele></ele><time>2014-4-20T19:44:0Z</time></trkpt>
<trkpt lat="46.05903385" lon="6.09720323"><ele></ele><time>2014-4-20T19:44:3Z</time></trkpt>
<trkpt lat="46.05880804" lon="6.09706929"><ele></ele><time>2014-4-20T19:44:6Z</time></trkpt>
<trkpt lat="46.05874049" lon="6.09703920"><ele></ele><time>2014-4-20T19:44:9Z</time></trkpt>
<trkpt lat="46.05860855" lon="6.09696418"><ele></ele><time>2014-4-20T19:44:12Z</time></trkpt>
<trkpt lat="46.05855198" lon="6.09692973"><ele></ele><time>2014-4-20T19:44:15Z</time></trkpt>
<trkpt lat="46.05836992" lon="6.09680610"><ele></ele><time>2014-4-20T19:44:18Z</time></trkpt>
<trkpt lat="46.05819834" lon="6.09671943"><ele></ele><time>2014-4-20T19:44:21Z</time></trkpt>
<trkpt lat="46.05795317" lon="6.09665045"><ele></ele><time>2014-4-20T19:44:24Z</time></trkpt>
<trkpt lat="46.05777263" lon="6.09664793"><ele></ele><time>2014-4-20T19:44:27Z</time></trkpt>
<trkpt lat="46.05752846" lon="6.09666402"><ele></ele><time>2014-4-20T19:44:30Z</time></trkpt>
<trkpt lat="46.05729947" lon="6.09651592"><ele></ele><time>2014-4-20T19:44:33Z</time></trkpt>
<trkpt lat="46.05725354" lon="6.09618567"><ele></ele><time>2014-4-20T19:44:36Z</time></trkpt>
<trkpt lat="46.05731648" lon="6.09598048"><ele></ele><time>2014-4-20T19:44:39Z</time></trkpt>
<trkpt lat="46.05735856" lon="6.09581812"><ele></ele><time>2014-4-20T19:44:42Z</time></trkpt>
<trkpt lat="46.05742059" lon="6.09569432"><ele></ele><time>2014-4-20T19:44:45Z</time></trkpt>
<trkpt lat="46.05755629" lon="6.09554705"><ele></ele><time>2014-4-20T19:44:48Z</time></trkpt>
<trkpt lat="46.05782669" lon="6.09540397"><ele></ele><time>2014-4-20T19:44:51Z</time></trkpt>
<trkpt lat="46.05802534" lon="6.09531152"><ele></ele><time>2014-4-20T19:44:54Z</time></trkpt>
<trkpt lat="46.05824327" lon="6.09521253"><ele></ele><time>2014-4-20T19:44:57Z</time></trkpt>
<trkpt lat="46.05859330" lon="6.09506283"><ele></ele><time>2014-4-20T19:45:0Z</time></trkpt>
<trkpt lat="46.05884266" lon="6.09496602"><ele></ele><time>2014-4-20T19:45:3Z</time></trkpt>
<trkpt lat="46.05940970" lon="6.09473778"><ele></ele><time>2014-4-20T19:45:6Z</time></trkpt>
<trkpt lat="46.05990624" lon="6.09431357"><ele></ele><time>2014-4-20T19:45:9Z</time></trkpt>
<trkpt lat="46.06010498" lon="6.09411769"><ele></ele><time>2014-4-20T19:45:12Z</time></trkpt>
<trkpt lat="46.06031603" lon="6.09390998"><ele></ele><time>2014-4-20T19:45:15Z</time></trkpt>
<trkpt lat="46.06053857" lon="6.09368602"><ele></ele><time>2014-4-20T19:45:18Z</time></trkpt>
<trkpt lat="46.06087603" lon="6.09335929"><ele></ele><time>2014-4-20T19:45:21Z</time></trkpt>
<trkpt lat="46.06122144" lon="6.09311127"><ele></ele><time>2014-4-20T19:45:24Z</time></trkpt>
<trkpt lat="46.06147567" lon="6.09298705"><ele></ele><time>2014-4-20T19:45:27Z</time></trkpt>
<trkpt lat="46.06172796" lon="6.09288504"><ele></ele><time>2014-4-20T19:45:30Z</time></trkpt>
<trkpt lat="46.06224102" lon="6.09286367"><ele></ele><time>2014-4-20T19:45:33Z</time></trkpt>
<trkpt lat="46.06279674" lon="6.09298563"><ele></ele><time>2014-4-20T19:45:36Z</time></trkpt>
<trkpt lat="46.06307686" lon="6.09305000"><ele></ele><time>2014-4-20T19:45:39Z</time></trkpt>
<trkpt lat="46.06334190" lon="6.09309149"><ele></ele><time>2014-4-20T19:45:42Z</time></trkpt>
<trkpt lat="46.06347249" lon="6.09309987"><ele></ele><time>2014-4-20T19:45:45Z</time></trkpt>
<trkpt lat="46.06360383" lon="6.09309719"><ele></ele><time>2014-4-20T19:45:48Z</time></trkpt>
<trkpt lat="46.06399778" lon="6.09297657"><ele></ele><time>2014-4-20T19:45:51Z</time></trkpt>
<trkpt lat="46.06425058" lon="6.09282813"><ele></ele><time>2014-4-20T19:45:54Z</time></trkpt>
<trkpt lat="46.06437296" lon="6.09275579"><ele></ele><time>2014-4-20T19:45:57Z</time></trkpt>
<trkpt lat="46.06490856" lon="6.09268078"><ele></ele><time>2014-4-20T19:46:0Z</time></trkpt>
<trkpt lat="46.06517938" lon="6.09281329"><ele></ele><time>2014-4-20T19:46:3Z</time></trkpt>
<trkpt lat="46.06556579" lon="6.09306115"><ele></ele><time>2014-4-20T19:46:6Z</time></trkpt>
<trkpt lat="46.06592847" lon="6.09332652"><ele></ele><time>2014-4-20T19:46:9Z</time></trkpt>
<trkpt lat="46.06627297" lon="6.09359189"><ele></ele><time>2014-4-20T19:46:12Z</time></trkpt>
<trkpt lat="46.06657145" lon="6.09384100"><ele></ele><time>2014-4-20T19:46:15Z</time></trkpt>
<trkpt lat="46.06665384" lon="6.09390956"><ele></ele><time>2014-4-20T19:46:18Z</time></trkpt>
<trkpt lat="46.06696774" lon="6.09385508"><ele></ele><time>2014-4-20T19:46:21Z</time></trkpt>
<trkpt lat="46.06698233" lon="6.09346038"><ele></ele><time>2014-4-20T19:46:24Z</time></trkpt>
<trkpt lat="46.06694008" lon="6.09332694"><ele></ele><time>2014-4-20T19:46:27Z</time></trkpt>
<trkpt lat="46.06683958" lon="6.09306819"><ele></ele><time>2014-4-20T19:46:30Z</time></trkpt>
<trkpt lat="46.06662534" lon="6.09257466"><ele></ele><time>2014-4-20T19:46:33Z</time></trkpt>
<trkpt lat="46.06653289" lon="6.09233033"><ele></ele><time>2014-4-20T19:46:36Z</time></trkpt>
<trkpt lat="46.06647070" lon="6.09207694"><ele></ele><time>2014-4-20T19:46:39Z</time></trkpt>
<trkpt lat="46.06646994" lon="6.09169565"><ele></ele><time>2014-4-20T19:46:42Z</time></trkpt>
<trkpt lat="46.06651956" lon="6.09139164"><ele></ele><time>2014-4-20T19:46:45Z</time></trkpt>
<trkpt lat="46.06669567" lon="6.09116415"><ele></ele><time>2014-4-20T19:46:48Z</time></trkpt>
<trkpt lat="46.06694830" lon="6.09134554"><ele></ele><time>2014-4-20T19:46:51Z</time></trkpt>
<trkpt lat="46.06786025" lon="6.09219044"><ele></ele><time>2014-4-20T19:46:54Z</time></trkpt>
<trkpt lat="46.06870330" lon="6.09310758"><ele></ele><time>2014-4-20T19:46:57Z</time></trkpt>
<trkpt lat="46.06884277" lon="6.09342484"><ele></ele><time>2014-4-20T19:47:0Z</time></trkpt>
<trkpt lat="46.06886373" lon="6.09352450"><ele></ele><time>2014-4-20T19:47:3Z</time></trkpt>
<trkpt lat="46.06893179" lon="6.09387168"><ele></ele><time>2014-4-20T19:47:6Z</time></trkpt>
<trkpt lat="46.06898652" lon="6.09418256"><ele></ele><time>2014-4-20T19:47:9Z</time></trkpt>
<trkpt lat="46.06902055" lon="6.09432505"><ele></ele><time>2014-4-20T19:47:12Z</time></trkpt>
<trkpt lat="46.06911720" lon="6.09461037"><ele></ele><time>2014-4-20T19:47:15Z</time></trkpt>
<trkpt lat="46.06915299" lon="6.09471423"><ele></ele><time>2014-4-20T19:47:18Z</time></trkpt>
<trkpt lat="46.06939347" lon="6.09547505"><ele></ele><time>2014-4-20T19:47:21Z</time></trkpt>
<trkpt lat="46.06950377" lon="6.09583430"><ele></ele><time>2014-4-20T19:47:24Z</time></trkpt>
<trkpt lat="46.06953587" lon="6.09601250"><ele></ele><time>2014-4-20T19:47:27Z</time></trkpt>
<trkpt lat="46.06964995" lon="6.09633688"><ele></ele><time>2014-4-20T19:47:30Z</time></trkpt>
<trkpt lat="46.06977870" lon="6.09651374"><ele></ele><time>2014-4-20T19:47:33Z</time></trkpt>
<trkpt lat="46.06996469" lon="6.09665648"><ele></ele><time>2014-4-20T19:47:36Z</time></trkpt>
<trkpt lat="46.07017416" lon="6.09710089"><ele></ele><time>2014-4-20T19:47:39Z</time></trkpt>
<trkpt lat="46.07021456" lon="6.09714800"><ele></ele><time>2014-4-20T19:47:42Z</time></trkpt>
<trkpt lat="46.07042394" lon="6.09752988"><ele></ele><time>2014-4-20T19:47:45Z</time></trkpt>
<trkpt lat="46.07082719" lon="6.09797713"><ele></ele><time>2014-4-20T19:47:48Z</time></trkpt>
<trkpt lat="46.07093800" lon="6.09808744"><ele></ele><time>2014-4-20T19:47:51Z</time></trkpt>
<trkpt lat="46.07096834" lon="6.09812616"><ele></ele><time>2014-4-20T19:47:54Z</time></trkpt>
<trkpt lat="46.07102827" lon="6.09821258"><ele></ele><time>2014-4-20T19:47:57Z</time></trkpt>
<trkpt lat="46.07111226" lon="6.09828039"><ele></ele><time>2014-4-20T19:48:0Z</time></trkpt>
<trkpt lat="46.07128157" lon="6.09844476"><ele></ele><time>2014-4-20T19:48:3Z</time></trkpt>
<trkpt lat="46.07137268" lon="6.09853956"><ele></ele><time>2014-4-20T19:48:6Z</time></trkpt>
<trkpt lat="46.07145407" lon="6.09867459"><ele></ele><time>2014-4-20T19:48:9Z</time></trkpt>
<trkpt lat="46.07147578" lon="6.09872614"><ele></ele><time>2014-4-20T19:48:12Z</time></trkpt>
<trkpt lat="46.07164166" lon="6.09914314"><ele></ele><time>2014-4-20T19:48:15Z</time></trkpt>
<trkpt lat="46.07171995" lon="6.09958654"><ele></ele><time>2014-4-20T19:48:18Z</time></trkpt>
<trkpt lat="46.07182179" lon="6.09986247"><ele></ele><time>2014-4-20T19:48:21Z</time></trkpt>
<trkpt lat="46.07199772" lon="6.10026472"><ele></ele><time>2014-4-20T19:48:24Z</time></trkpt>
<trkpt lat="46.07213468" lon="6.10064576"><ele></ele><time>2014-4-20T19:48:27Z</time></trkpt>
<trkpt lat="46.07244029" lon="6.10077652"><ele></ele><time>2014-4-20T19:48:30Z</time></trkpt>
<trkpt lat="46.07252738" lon="6.10085699"><ele></ele><time>2014-4-20T19:48:33Z</time></trkpt>
<trkpt lat="46.07260943" lon="6.10095757"><ele></ele><time>2014-4-20T19:48:36Z</time></trkpt>
<trkpt lat="46.07279685" lon="6.10119729"><ele></ele><time>2014-4-20T19:48:39Z</time></trkpt>
<trkpt lat="46.07297597" lon="6.10134498"><ele></ele><time>2014-4-20T19:48:42Z</time></trkpt>
<trkpt lat="46.07343690" lon="6.10171789"><ele></ele><time>2014-4-20T19:48:45Z</time></trkpt>
<trkpt lat="46.07357327" lon="6.10184907"><ele></ele><time>2014-4-20T19:48:48Z</time></trkpt>
<trkpt lat="46.07367528" lon="6.10192962"><ele></ele><time>2014-4-20T19:48:51Z</time></trkpt>
<trkpt lat="46.07394333" lon="6.10218342"><ele></ele><time>2014-4-20T19:48:54Z</time></trkpt>
<trkpt lat="46.07404358" lon="6.10230018"><ele></ele><time>2014-4-20T19:48:57Z</time></trkpt>
<trkpt lat="46.07445220" lon="6.10299245"><ele></ele><time>2014-4-20T19:49:0Z</time></trkpt>
<trkpt lat="46.07483357" lon="6.10356962"><ele></ele><time>2014-4-20T19:49:3Z</time></trkpt>
<trkpt lat="46.07507396" lon="6.10382267"><ele></ele><time>2014-4-20T19:49:6Z</time></trkpt>
<trkpt lat="46.07517346" lon="6.10390716"><ele></ele><time>2014-4-20T19:49:9Z</time></trkpt>
<trkpt lat="46.07529977" lon="6.10403608"><ele></ele><time>2014-4-20T19:49:12Z</time></trkpt>
<trkpt lat="46.07553195" lon="6.10411864"><ele></ele><time>2014-4-20T19:49:15Z</time></trkpt>
<trkpt lat="46.07606144" lon="6.10408922"><ele></ele><time>2014-4-20T19:49:18Z</time></trkpt>
<trkpt lat="46.07644348" lon="6.10412844"><ele></ele><time>2014-4-20T19:49:21Z</time></trkpt>
<trkpt lat="46.07661540" lon="6.10415887"><ele></ele><time>2014-4-20T19:49:24Z</time></trkpt>
<trkpt lat="46.07672269" lon="6.10416826"><ele></ele><time>2014-4-20T19:49:27Z</time></trkpt>
<trkpt lat="46.07675487" lon="6.10422743"><ele></ele><time>2014-4-20T19:49:30Z</time></trkpt>
<trkpt lat="46.07676158" lon="6.10421914"><ele></ele><time>2014-4-20T19:49:33Z</time></trkpt>
<trkpt lat="46.07677474" lon="6.10419265"><ele></ele><time>2014-4-20T19:49:36Z</time></trkpt>
<trkpt lat="46.07680659" lon="6.10417220"><ele></ele><time>2014-4-20T19:49:39Z</time></trkpt>
<trkpt lat="46.07689468" lon="6.10418569"><ele></ele><time>2014-4-20T19:49:42Z</time></trkpt>
<trkpt lat="46.07692829" lon="6.10419449"><ele></ele><time>2014-4-20T19:49:45Z</time></trkpt>
<trkpt lat="46.07719308" lon="6.10436356"><ele></ele><time>2014-4-20T19:49:48Z</time></trkpt>
<trkpt lat="46.07725594" lon="6.10440823"><ele></ele><time>2014-4-20T19:49:51Z</time></trkpt>
<trkpt lat="46.07731964" lon="6.10445148"><ele></ele><time>2014-4-20T19:49:54Z</time></trkpt>
<trkpt lat="46.07761754" lon="6.10460739"><ele></ele><time>2014-4-20T19:49:57Z</time></trkpt>
<trkpt lat="46.07833268" lon="6.10513285"><ele></ele><time>2014-4-20T19:50:0Z</time></trkpt>
<trkpt lat="46.07838524" lon="6.10517560"><ele></ele><time>2014-4-20T19:50:3Z</time></trkpt>
<trkpt lat="46.07902654" lon="6.10590918"><ele></ele><time>2014-4-20T19:50:6Z</time></trkpt>
<trkpt lat="46.07926986" lon="6.10612392"><ele></ele><time>2014-4-20T19:50:9Z</time></trkpt>
<trkpt lat="46.07991904" lon="6.10633498"><ele></ele><time>2014-4-20T19:50:12Z</time></trkpt>
<trkpt lat="46.07999096" lon="6.10635552"><ele></ele><time>2014-4-20T19:50:15Z</time></trkpt>
<trkpt lat="46.08021484" lon="6.10634546"><ele></ele><time>2014-4-20T19:50:18Z</time></trkpt>
<trkpt lat="46.08096854" lon="6.10609115"><ele></ele><time>2014-4-20T19:50:21Z</time></trkpt>
<trkpt lat="46.08109158" lon="6.10606265"><ele></ele><time>2014-4-20T19:50:24Z</time></trkpt>
<trkpt lat="46.08147472" lon="6.10608185"><ele></ele><time>2014-4-20T19:50:27Z</time></trkpt>
<trkpt lat="46.08157799" lon="6.10599459"><ele></ele><time>2014-4-20T19:50:30Z</time></trkpt>
<trkpt lat="46.08159064" lon="6.10595377"><ele></ele><time>2014-4-20T19:50:33Z</time></trkpt>
<trkpt lat="46.08160464" lon="6.10595293"><ele></ele><time>2014-4-20T19:50:36Z</time></trkpt>
<trkpt lat="46.08159467" lon="6.10589535"><ele></ele><time>2014-4-20T19:50:39Z</time></trkpt>
<trkpt lat="46.08170346" lon="6.10595235"><ele></ele><time>2014-4-20T19:50:42Z</time></trkpt>
<trkpt lat="46.08192215" lon="6.10609107"><ele></ele><time>2014-4-20T19:50:45Z</time></trkpt>
<trkpt lat="46.08214737" lon="6.10578815"><ele></ele><time>2014-4-20T19:50:48Z</time></trkpt>
<trkpt lat="46.08223127" lon="6.10582536"><ele></ele><time>2014-4-20T19:50:51Z</time></trkpt>
<trkpt lat="46.08247929" lon="6.10596308"><ele></ele><time>2014-4-20T19:50:54Z</time></trkpt>
<trkpt lat="46.08308497" lon="6.10641427"><ele></ele><time>2014-4-20T19:50:57Z</time></trkpt>
<trkpt lat="46.08334363" lon="6.10681116"><ele></ele><time>2014-4-20T19:51:0Z</time></trkpt>
<trkpt lat="46.08347439" lon="6.10693479"><ele></ele><time>2014-4-20T19:51:3Z</time></trkpt>
<trkpt lat="46.08378863" lon="6.10697268"><ele></ele><time>2014-4-20T19:51:6Z</time></trkpt>
<trkpt lat="46.08409666" lon="6.10696178"><ele></ele><time>2014-4-20T19:51:9Z</time></trkpt>
<trkpt lat="46.08450419" lon="6.10692155"><ele></ele><time>2014-4-20T19:51:12Z</time></trkpt>
<trkpt lat="46.08462255" lon="6.10694175"><ele></ele><time>2014-4-20T19:51:15Z</time></trkpt>
<trkpt lat="46.08489839" lon="6.10706605"><ele></ele><time>2014-4-20T19:51:18Z</time></trkpt>
<trkpt lat="46.08497006" lon="6.10710125"><ele></ele><time>2014-4-20T19:51:21Z</time></trkpt>
<trkpt lat="46.08524373" lon="6.10730334"><ele></ele><time>2014-4-20T19:51:24Z</time></trkpt>
<trkpt lat="46.08552695" lon="6.10750845"><ele></ele><time>2014-4-20T19:51:27Z</time></trkpt>
<trkpt lat="46.08559652" lon="6.10754776"><ele></ele><time>2014-4-20T19:51:30Z</time></trkpt>
<trkpt lat="46.08596767" lon="6.10760744"><ele></ele><time>2014-4-20T19:51:33Z</time></trkpt>
<trkpt lat="46.08617328" lon="6.10768413"><ele></ele><time>2014-4-20T19:51:36Z</time></trkpt>
<trkpt lat="46.08636883" lon="6.10779938"><ele></ele><time>2014-4-20T19:51:39Z</time></trkpt>
<trkpt lat="46.08661509" lon="6.10796769"><ele></ele><time>2014-4-20T19:51:42Z</time></trkpt>
<trkpt lat="46.08707073" lon="6.10796694"><ele></ele><time>2014-4-20T19:51:45Z</time></trkpt>
<trkpt lat="46.08733384" lon="6.10807716"><ele></ele><time>2014-4-20T19:51:48Z</time></trkpt>
<trkpt lat="46.08740668" lon="6.10808143"><ele></ele><time>2014-4-20T19:51:51Z</time></trkpt>
<trkpt lat="46.08803297" lon="6.10814237"><ele></ele><time>2014-4-20T19:51:54Z</time></trkpt>
<trkpt lat="46.08838895" lon="6.10829316"><ele></ele><time>2014-4-20T19:51:57Z</time></trkpt>
<trkpt lat="46.08866832" lon="6.10823415"><ele></ele><time>2014-4-20T19:52:0Z</time></trkpt>
<trkpt lat="46.08903327" lon="6.10816156"><ele></ele><time>2014-4-20T19:52:3Z</time></trkpt>
<trkpt lat="46.08906462" lon="6.10810272"><ele></ele><time>2014-4-20T19:52:6Z</time></trkpt>
<trkpt lat="46.08910443" lon="6.10803835"><ele></ele><time>2014-4-20T19:52:9Z</time></trkpt>
<trkpt lat="46.08956644" lon="6.10810742"><ele></ele><time>2014-4-20T19:52:12Z</time></trkpt>
<trkpt lat="46.09014597" lon="6.10851486"><ele></ele><time>2014-4-20T19:52:15Z</time></trkpt>
<trkpt lat="46.09034537" lon="6.10876573"><ele></ele><time>2014-4-20T19:52:18Z</time></trkpt>
<trkpt lat="46.09104266" lon="6.10967467"><ele></ele><time>2014-4-20T19:52:21Z</time></trkpt>
<trkpt lat="46.09165513" lon="6.11023374"><ele></ele><time>2014-4-20T19:52:24Z</time></trkpt>
<trkpt lat="46.09179167" lon="6.11035234"><ele></ele><time>2014-4-20T19:52:27Z</time></trkpt>
<trkpt lat="46.09201656" lon="6.11069106"><ele></ele><time>2014-4-20T19:52:30Z</time></trkpt>
<trkpt lat="46.09204388" lon="6.11081846"><ele></ele><time>2014-4-20T19:52:33Z</time></trkpt>
<trkpt lat="46.09206224" lon="6.11095282"><ele></ele><time>2014-4-20T19:52:36Z</time></trkpt>
<trkpt lat="46.09213072" lon="6.11146764"><ele></ele><time>2014-4-20T19:52:39Z</time></trkpt>
<trkpt lat="46.09242626" lon="6.11224573"><ele></ele><time>2014-4-20T19:52:42Z</time></trkpt>
<trkpt lat="46.09273463" lon="6.11292022"><ele></ele><time>2014-4-20T19:52:45Z</time></trkpt>
<trkpt lat="46.09322330" lon="6.11378163"><ele></ele><time>2014-4-20T19:52:48Z</time></trkpt>
<trkpt lat="46.09345280" lon="6.11399730"><ele></ele><time>2014-4-20T19:52:51Z</time></trkpt>
<trkpt lat="46.09454898" lon="6.11437457"><ele></ele><time>2014-4-20T19:52:54Z</time></trkpt>
<trkpt lat="46.09480404" lon="6.11463868"><ele></ele><time>2014-4-20T19:52:57Z</time></trkpt>
<trkpt lat="46.09499792" lon="6.11498108"><ele></ele><time>2014-4-20T19:53:0Z</time></trkpt>
<trkpt lat="46.09511786" lon="6.11516758"><ele></ele><time>2014-4-20T19:53:3Z</time></trkpt>
<trkpt lat="46.09528055" lon="6.11535056"><ele></ele><time>2014-4-20T19:53:6Z</time></trkpt>
<trkpt lat="46.09547962" lon="6.11549908"><ele></ele><time>2014-4-20T19:53:9Z</time></trkpt>
<trkpt lat="46.09564902" lon="6.11555734"><ele></ele><time>2014-4-20T19:53:12Z</time></trkpt>
<trkpt lat="46.09565347" lon="6.11552808"><ele></ele><time>2014-4-20T19:53:15Z</time></trkpt>
<trkpt lat="46.09569755" lon="6.11540906"><ele></ele><time>2014-4-20T19:53:18Z</time></trkpt>
<trkpt lat="46.09583770" lon="6.11523832"><ele></ele><time>2014-4-20T19:53:21Z</time></trkpt>
<trkpt lat="46.09599017" lon="6.11506322"><ele></ele><time>2014-4-20T19:53:24Z</time></trkpt>
<trkpt lat="46.09618932" lon="6.11495342"><ele></ele><time>2014-4-20T19:53:27Z</time></trkpt>
<trkpt lat="46.09639459" lon="6.11460222"><ele></ele><time>2014-4-20T19:53:30Z</time></trkpt>
<trkpt lat="46.09648445" lon="6.11395857"><ele></ele><time>2014-4-20T19:53:33Z</time></trkpt>
<trkpt lat="46.09649459" lon="6.11360159"><ele></ele><time>2014-4-20T19:53:36Z</time></trkpt>
<trkpt lat="46.09647648" lon="6.11333580"><ele></ele><time>2014-4-20T19:53:39Z</time></trkpt>
<trkpt lat="46.09644027" lon="6.11290094"><ele></ele><time>2014-4-20T19:53:42Z</time></trkpt>
<trkpt lat="46.09646559" lon="6.11286524"><ele></ele><time>2014-4-20T19:53:45Z</time></trkpt>
<trkpt lat="46.09650129" lon="6.11290648"><ele></ele><time>2014-4-20T19:53:48Z</time></trkpt>
<trkpt lat="46.09677723" lon="6.11331736"><ele></ele><time>2014-4-20T19:53:51Z</time></trkpt>
<trkpt lat="46.09687789" lon="6.11346924"><ele></ele><time>2014-4-20T19:53:54Z</time></trkpt>
<trkpt lat="46.09708434" lon="6.11368666"><ele></ele><time>2014-4-20T19:53:57Z</time></trkpt>
<trkpt lat="46.09714896" lon="6.11371944"><ele></ele><time>2014-4-20T19:54:0Z</time></trkpt>
<trkpt lat="46.09735206" lon="6.11379513"><ele></ele><time>2014-4-20T19:54:3Z</time></trkpt>
<trkpt lat="46.09761936" lon="6.11355423"><ele></ele><time>2014-4-20T19:54:6Z</time></trkpt>
<trkpt lat="46.09765389" lon="6.11329355"><ele></ele><time>2014-4-20T19:54:9Z</time></trkpt>
<trkpt lat="46.09765490" lon="6.11293187"><ele></ele><time>2014-4-20T19:54:12Z</time></trkpt>
<trkpt lat="46.09764408" lon="6.11264546"><ele></ele><time>2014-4-20T19:54:15Z</time></trkpt>
<trkpt lat="46.09756152" lon="6.11210525"><ele></ele><time>2014-4-20T19:54:18Z</time></trkpt>
<trkpt lat="46.09756060" lon="6.11177333"><ele></ele><time>2014-4-20T19:54:21Z</time></trkpt>
<trkpt lat="46.09756504" lon="6.11165464"><ele></ele><time>2014-4-20T19:54:24Z</time></trkpt>
<trkpt lat="46.09755289" lon="6.11140754"><ele></ele><time>2014-4-20T19:54:27Z</time></trkpt>
<trkpt lat="46.09764677" lon="6.11094830"><ele></ele><time>2014-4-20T19:54:30Z</time></trkpt>
<trkpt lat="46.09774617" lon="6.11073783"><ele></ele><time>2014-4-20T19:54:33Z</time></trkpt>
<trkpt lat="46.09783905" lon="6.11038595"><ele></ele><time>2014-4-20T19:54:36Z</time></trkpt>
<trkpt lat="46.09791918" lon="6.10997717"><ele></ele><time>2014-4-20T19:54:39Z</time></trkpt>
<trkpt lat="46.09799612" lon="6.10969378"><ele></ele><time>2014-4-20T19:54:42Z</time></trkpt>
<trkpt lat="46.09812286" lon="6.10906505"><ele></ele><time>2014-4-20T19:54:45Z</time></trkpt>
<trkpt lat="46.09803963" lon="6.10891468"><ele></ele><time>2014-4-20T19:54:48Z</time></trkpt>
<trkpt lat="46.09806075" lon="6.10876188"><ele></ele><time>2014-4-20T19:54:51Z</time></trkpt>
<trkpt lat="46.09817709" lon="6.10850765"><ele></ele><time>2014-4-20T19:54:54Z</time></trkpt>
<trkpt lat="46.09840658" lon="6.10800809"><ele></ele><time>2014-4-20T19:54:57Z</time></trkpt>
<trkpt lat="46.09847825" lon="6.10777206"><ele></ele><time>2014-4-20T19:55:0Z</time></trkpt>
<trkpt lat="46.09846685" lon="6.10680512"><ele></ele><time>2014-4-20T19:55:3Z</time></trkpt>
<trkpt lat="46.09852024" lon="6.10643959"><ele></ele><time>2014-4-20T19:55:6Z</time></trkpt>
<trkpt lat="46.09855729" lon="6.10635283"><ele></ele><time>2014-4-20T19:55:9Z</time></trkpt>
<trkpt lat="46.09867623" lon="6.10608034"><ele></ele><time>2014-4-20T19:55:12Z</time></trkpt>
<trkpt lat="46.09881529" lon="6.10584212"><ele></ele><time>2014-4-20T19:55:15Z</time></trkpt>
<trkpt lat="46.09875284" lon="6.10548120"><ele></ele><time>2014-4-20T19:55:18Z</time></trkpt>
<trkpt lat="46.09863952" lon="6.10530904"><ele></ele><time>2014-4-20T19:55:21Z</time></trkpt>
<trkpt lat="46.09865972" lon="6.10525263"><ele></ele><time>2014-4-20T19:55:24Z</time></trkpt>
<trkpt lat="46.09877346" lon="6.10501089"><ele></ele><time>2014-4-20T19:55:27Z</time></trkpt>
<trkpt lat="46.09871387" lon="6.10470110"><ele></ele><time>2014-4-20T19:55:30Z</time></trkpt>
<trkpt lat="46.09856953" lon="6.10454989"><ele></ele><time>2014-4-20T19:55:33Z</time></trkpt>
<trkpt lat="46.09870113" lon="6.10419366"><ele></ele><time>2014-4-20T19:55:36Z</time></trkpt>
<trkpt lat="46.09883582" lon="6.10418184"><ele></ele><time>2014-4-20T19:55:39Z</time></trkpt>
<trkpt lat="46.09898267" lon="6.10420832"><ele></ele><time>2014-4-20T19:55:42Z</time></trkpt>
<trkpt lat="46.09999906" lon="6.10439759"><ele></ele><time>2014-4-20T19:55:45Z</time></trkpt>
<trkpt lat="46.10016142" lon="6.10424856"><ele></ele><time>2014-4-20T19:55:48Z</time></trkpt>
<trkpt lat="46.10019059" lon="6.10414286"><ele></ele><time>2014-4-20T19:55:51Z</time></trkpt>
<trkpt lat="46.10012638" lon="6.10402543"><ele></ele><time>2014-4-20T19:55:54Z</time></trkpt>
<trkpt lat="46.09980477" lon="6.10382577"><ele></ele><time>2014-4-20T19:55:57Z</time></trkpt>
<trkpt lat="46.09969983" lon="6.10331674"><ele></ele><time>2014-4-20T19:56:0Z</time></trkpt>
<trkpt lat="46.09978650" lon="6.10320878"><ele></ele><time>2014-4-20T19:56:3Z</time></trkpt>
<trkpt lat="46.10028463" lon="6.10279287"><ele></ele><time>2014-4-20T19:56:6Z</time></trkpt>
<trkpt lat="46.10048957" lon="6.10273194"><ele></ele><time>2014-4-20T19:56:9Z</time></trkpt>
<trkpt lat="46.10103473" lon="6.10220304"><ele></ele><time>2014-4-20T19:56:12Z</time></trkpt>
<trkpt lat="46.10122198" lon="6.10200556"><ele></ele><time>2014-4-20T19:56:15Z</time></trkpt>
<trkpt lat="46.10181517" lon="6.10169023"><ele></ele><time>2014-4-20T19:56:18Z</time></trkpt>
<trkpt lat="46.10269267" lon="6.10143484"><ele></ele><time>2014-4-20T19:56:21Z</time></trkpt>
<trkpt lat="46.10391014" lon="6.10151748"><ele></ele><time>2014-4-20T19:56:24Z</time></trkpt>
<trkpt lat="46.10460106" lon="6.10166358"><ele></ele><time>2014-4-20T19:56:27Z</time></trkpt>
<trkpt lat="46.10528285" lon="6.10178193"><ele></ele><time>2014-4-20T19:56:30Z</time></trkpt>
<trkpt lat="46.10534219" lon="6.10179484"><ele></ele><time>2014-4-20T19:56:33Z</time></trkpt>
<trkpt lat="46.10565366" lon="6.10187916"><ele></ele><time>2014-4-20T19:56:36Z</time></trkpt>
<trkpt lat="46.10592356" lon="6.10183985"><ele></ele><time>2014-4-20T19:56:39Z</time></trkpt>
<trkpt lat="46.10599640" lon="6.10181345"><ele></ele><time>2014-4-20T19:56:42Z</time></trkpt>
<trkpt lat="46.10639613" lon="6.10166492"><ele></ele><time>2014-4-20T19:56:45Z</time></trkpt>
<trkpt lat="46.10665027" lon="6.10156517"><ele></ele><time>2014-4-20T19:56:48Z</time></trkpt>
<trkpt lat="46.10700332" lon="6.10142578"><ele></ele><time>2014-4-20T19:56:51Z</time></trkpt>
<trkpt lat="46.10718126" lon="6.10135462"><ele></ele><time>2014-4-20T19:56:54Z</time></trkpt>
<trkpt lat="46.10752467" lon="6.10121716"><ele></ele><time>2014-4-20T19:56:57Z</time></trkpt>
<trkpt lat="46.10787302" lon="6.10107643"><ele></ele><time>2014-4-20T19:57:0Z</time></trkpt>
<trkpt lat="46.10814418" lon="6.10096939"><ele></ele><time>2014-4-20T19:57:3Z</time></trkpt>
<trkpt lat="46.10842707" lon="6.10085439"><ele></ele><time>2014-4-20T19:57:6Z</time></trkpt>
<trkpt lat="46.10882428" lon="6.10068315"><ele></ele><time>2014-4-20T19:57:9Z</time></trkpt>
<trkpt lat="46.10930976" lon="6.10049967"><ele></ele><time>2014-4-20T19:57:12Z</time></trkpt>
<trkpt lat="46.10975233" lon="6.10033614"><ele></ele><time>2014-4-20T19:57:15Z</time></trkpt>
<trkpt lat="46.10980857" lon="6.10032004"><ele></ele><time>2014-4-20T19:57:18Z</time></trkpt>
<trkpt lat="46.10998652" lon="6.10024695"><ele></ele><time>2014-4-20T19:57:21Z</time></trkpt>
<trkpt lat="46.11017662" lon="6.10016347"><ele></ele><time>2014-4-20T19:57:24Z</time></trkpt>
<trkpt lat="46.11019464" lon="6.10014838"><ele></ele><time>2014-4-20T19:57:27Z</time></trkpt>
<trkpt lat="46.11046479" lon="6.10005685"><ele></ele><time>2014-4-20T19:57:30Z</time></trkpt>
<trkpt lat="46.11099218" lon="6.09985728"><ele></ele><time>2014-4-20T19:57:33Z</time></trkpt>
<trkpt lat="46.11135780" lon="6.09971018"><ele></ele><time>2014-4-20T19:57:36Z</time></trkpt>
<trkpt lat="46.11160004" lon="6.09962258"><ele></ele><time>2014-4-20T19:57:39Z</time></trkpt>
<trkpt lat="46.11174462" lon="6.09953189"><ele></ele><time>2014-4-20T19:57:42Z</time></trkpt>
<trkpt lat="46.11207177" lon="6.09942310"><ele></ele><time>2014-4-20T19:57:45Z</time></trkpt>
<trkpt lat="46.11239405" lon="6.09929728"><ele></ele><time>2014-4-20T19:57:48Z</time></trkpt>
<trkpt lat="46.11247494" lon="6.09926669"><ele></ele><time>2014-4-20T19:57:51Z</time></trkpt>
<trkpt lat="46.11287668" lon="6.09909243"><ele></ele><time>2014-4-20T19:57:54Z</time></trkpt>
<trkpt lat="46.11295472" lon="6.09905555"><ele></ele><time>2014-4-20T19:57:57Z</time></trkpt>
<trkpt lat="46.11322453" lon="6.09893334"><ele></ele><time>2014-4-20T19:58:0Z</time></trkpt>
<trkpt lat="46.11354665" lon="6.09881633"><ele></ele><time>2014-4-20T19:58:3Z</time></trkpt>
<trkpt lat="46.11382275" lon="6.09863545"><ele></ele><time>2014-4-20T19:58:6Z</time></trkpt>
<trkpt lat="46.11459539" lon="6.09817386"><ele></ele><time>2014-4-20T19:58:9Z</time></trkpt>
<trkpt lat="46.11557440" lon="6.09763163"><ele></ele><time>2014-4-20T19:58:12Z</time></trkpt>
<trkpt lat="46.11615987" lon="6.09735235"><ele></ele><time>2014-4-20T19:58:15Z</time></trkpt>
<trkpt lat="46.11625065" lon="6.09730365"><ele></ele><time>2014-4-20T19:58:18Z</time></trkpt>
<trkpt lat="46.11638459" lon="6.09737364"><ele></ele><time>2014-4-20T19:58:21Z</time></trkpt>
<trkpt lat="46.11638124" lon="6.09745687"><ele></ele><time>2014-4-20T19:58:24Z</time></trkpt>
<trkpt lat="46.11635107" lon="6.09773959"><ele></ele><time>2014-4-20T19:58:27Z</time></trkpt>
<trkpt lat="46.11634302" lon="6.09784286"><ele></ele><time>2014-4-20T19:58:30Z</time></trkpt>
<trkpt lat="46.11639616" lon="6.09827327"><ele></ele><time>2014-4-20T19:58:33Z</time></trkpt>
<trkpt lat="46.11654033" lon="6.09866772"><ele></ele><time>2014-4-20T19:58:36Z</time></trkpt>
<trkpt lat="46.11674753" lon="6.09917994"><ele></ele><time>2014-4-20T19:58:39Z</time></trkpt>
<trkpt lat="46.11711298" lon="6.10011988"><ele></ele><time>2014-4-20T19:58:42Z</time></trkpt>
<trkpt lat="46.11758396" lon="6.10119444"><ele></ele><time>2014-4-20T19:58:45Z</time></trkpt>
<trkpt lat="46.11766652" lon="6.10138144"><ele></ele><time>2014-4-20T19:58:48Z</time></trkpt>
<trkpt lat="46.11783022" lon="6.10164564"><ele></ele><time>2014-4-20T19:58:51Z</time></trkpt>
<trkpt lat="46.11811747" lon="6.10196466"><ele></ele><time>2014-4-20T19:58:54Z</time></trkpt>
<trkpt lat="46.11877905" lon="6.10243622"><ele></ele><time>2014-4-20T19:58:57Z</time></trkpt>
<trkpt lat="46.11948984" lon="6.10291449"><ele></ele><time>2014-4-20T19:59:0Z</time></trkpt>
<trkpt lat="46.12054587" lon="6.10357817"><ele></ele><time>2014-4-20T19:59:3Z</time></trkpt>
<trkpt lat="46.12073078" lon="6.10369233"><ele></ele><time>2014-4-20T19:59:6Z</time></trkpt>
<trkpt lat="46.12083589" lon="6.10392317"><ele></ele><time>2014-4-20T19:59:9Z</time></trkpt>
<trkpt lat="46.12098349" lon="6.10412350"><ele></ele><time>2014-4-20T19:59:12Z</time></trkpt>
<trkpt lat="46.12162823" lon="6.10417672"><ele></ele><time>2014-4-20T19:59:15Z</time></trkpt>
<trkpt lat="46.12230934" lon="6.10423707"><ele></ele><time>2014-4-20T19:59:18Z</time></trkpt>
<trkpt lat="46.12252627" lon="6.10425116"><ele></ele><time>2014-4-20T19:59:21Z</time></trkpt>
<trkpt lat="46.12267622" lon="6.10426314"><ele></ele><time>2014-4-20T19:59:24Z</time></trkpt>
<trkpt lat="46.12295165" lon="6.10417505"><ele></ele><time>2014-4-20T19:59:27Z</time></trkpt>
<trkpt lat="46.12323487" lon="6.10417513"><ele></ele><time>2014-4-20T19:59:30Z</time></trkpt>
<trkpt lat="46.12371080" lon="6.10434109"><ele></ele><time>2014-4-20T19:59:33Z</time></trkpt>
<trkpt lat="46.12422897" lon="6.10450144"><ele></ele><time>2014-4-20T19:59:36Z</time></trkpt>
<trkpt lat="46.12465192" lon="6.10468618"><ele></ele><time>2014-4-20T19:59:39Z</time></trkpt>
<trkpt lat="46.12497093" lon="6.10483915"><ele></ele><time>2014-4-20T19:59:42Z</time></trkpt>
<trkpt lat="46.12602646" lon="6.10561213"><ele></ele><time>2014-4-20T19:59:45Z</time></trkpt>
<trkpt lat="46.12621590" lon="6.10576007"><ele></ele><time>2014-4-20T19:59:48Z</time></trkpt>
<trkpt lat="46.12713204" lon="6.10642869"><ele></ele><time>2014-4-20T19:59:51Z</time></trkpt>
<trkpt lat="46.12784978" lon="6.10700520"><ele></ele><time>2014-4-20T19:59:54Z</time></trkpt>
<trkpt lat="46.12829017" lon="6.10715062"><ele></ele><time>2014-4-20T19:59:57Z</time></trkpt>
<trkpt lat="46.12836435" lon="6.10716873"><ele></ele><time>2014-4-20T20:0:0Z</time></trkpt>
<trkpt lat="46.12851178" lon="6.10720963"><ele></ele><time>2014-4-20T20:0:3Z</time></trkpt>
<trkpt lat="46.12885904" lon="6.10743997"><ele></ele><time>2014-4-20T20:0:6Z</time></trkpt>
<trkpt lat="46.12899248" lon="6.10754550"><ele></ele><time>2014-4-20T20:0:9Z</time></trkpt>
<trkpt lat="46.12966220" lon="6.10807858"><ele></ele><time>2014-4-20T20:0:12Z</time></trkpt>
<trkpt lat="46.13061380" lon="6.10865409"><ele></ele><time>2014-4-20T20:0:15Z</time></trkpt>
<trkpt lat="46.13168425" lon="6.10929916"><ele></ele><time>2014-4-20T20:0:18Z</time></trkpt>
<trkpt lat="46.13258715" lon="6.10974424"><ele></ele><time>2014-4-20T20:0:21Z</time></trkpt>
<trkpt lat="46.13323842" lon="6.11032938"><ele></ele><time>2014-4-20T20:0:24Z</time></trkpt>
<trkpt lat="46.13353212" lon="6.11056013"><ele></ele><time>2014-4-20T20:0:27Z</time></trkpt>
<trkpt lat="46.13430519" lon="6.11122884"><ele></ele><time>2014-4-20T20:0:30Z</time></trkpt>
<trkpt lat="46.13513743" lon="6.11182647"><ele></ele><time>2014-4-20T20:0:33Z</time></trkpt>
<trkpt lat="46.13589088" lon="6.11172806"><ele></ele><time>2014-4-20T20:0:36Z</time></trkpt>
<trkpt lat="46.13626638" lon="6.11156579"><ele></ele><time>2014-4-20T20:0:39Z</time></trkpt>
<trkpt lat="46.13649932" lon="6.11129078"><ele></ele><time>2014-4-20T20:0:42Z</time></trkpt>
<trkpt lat="46.13660904" lon="6.11100772"><ele></ele><time>2014-4-20T20:0:45Z</time></trkpt>
<trkpt lat="46.13670342" lon="6.11052107"><ele></ele><time>2014-4-20T20:0:48Z</time></trkpt>
<trkpt lat="46.13675002" lon="6.10945087"><ele></ele><time>2014-4-20T20:0:51Z</time></trkpt>
<trkpt lat="46.13676402" lon="6.10889842"><ele></ele><time>2014-4-20T20:0:54Z</time></trkpt>
<trkpt lat="46.13694498" lon="6.10866389"><ele></ele><time>2014-4-20T20:0:57Z</time></trkpt>
<trkpt lat="46.13737229" lon="6.10858896"><ele></ele><time>2014-4-20T20:1:0Z</time></trkpt>
<trkpt lat="46.13753733" lon="6.10844085"><ele></ele><time>2014-4-20T20:1:3Z</time></trkpt>
<trkpt lat="46.13792198" lon="6.10833289"><ele></ele><time>2014-4-20T20:1:6Z</time></trkpt>
<trkpt lat="46.13880769" lon="6.10812292"><ele></ele><time>2014-4-20T20:1:9Z</time></trkpt>
<trkpt lat="46.13908882" lon="6.10804162"><ele></ele><time>2014-4-20T20:1:12Z</time></trkpt>
<trkpt lat="46.13935470" lon="6.10789888"><ele></ele><time>2014-4-20T20:1:15Z</time></trkpt>
<trkpt lat="46.14047058" lon="6.10718876"><ele></ele><time>2014-4-20T20:1:18Z</time></trkpt>
<trkpt lat="46.14085992" lon="6.10694736"><ele></ele><time>2014-4-20T20:1:21Z</time></trkpt>
<trkpt lat="46.14119687" lon="6.10674100"><ele></ele><time>2014-4-20T20:1:24Z</time></trkpt>
<trkpt lat="46.14123006" lon="6.10667218"><ele></ele><time>2014-4-20T20:1:27Z</time></trkpt>
<trkpt lat="46.14123585" lon="6.10681602"><ele></ele><time>2014-4-20T20:1:30Z</time></trkpt>
<trkpt lat="46.14124389" lon="6.10692792"><ele></ele><time>2014-4-20T20:1:33Z</time></trkpt>
<trkpt lat="46.14135495" lon="6.10696362"><ele></ele><time>2014-4-20T20:1:36Z</time></trkpt>
<trkpt lat="46.14159652" lon="6.10681744"><ele></ele><time>2014-4-20T20:1:39Z</time></trkpt>
<trkpt lat="46.14186265" lon="6.10668526"><ele></ele><time>2014-4-20T20:1:42Z</time></trkpt>
<trkpt lat="46.14220555" lon="6.10652835"><ele></ele><time>2014-4-20T20:1:45Z</time></trkpt>
<trkpt lat="46.14244016" lon="6.10646264"><ele></ele><time>2014-4-20T20:1:48Z</time></trkpt>
<trkpt lat="46.14270402" lon="6.10649876"><ele></ele><time>2014-4-20T20:1:51Z</time></trkpt>
<trkpt lat="46.14289287" lon="6.10652475"><ele></ele><time>2014-4-20T20:1:54Z</time></trkpt>
<trkpt lat="46.14300862" lon="6.10649189"><ele></ele><time>2014-4-20T20:1:57Z</time></trkpt>
<trkpt lat="46.14398394" lon="6.10631034"><ele></ele><time>2014-4-20T20:2:0Z</time></trkpt>
<trkpt lat="46.14408620" lon="6.10632886"><ele></ele><time>2014-4-20T20:2:3Z</time></trkpt>
<trkpt lat="46.14417169" lon="6.10628469"><ele></ele><time>2014-4-20T20:2:6Z</time></trkpt>
<trkpt lat="46.14408368" lon="6.10641696"><ele></ele><time>2014-4-20T20:2:9Z</time></trkpt>
<trkpt lat="46.14364036" lon="6.10657034"><ele></ele><time>2014-4-20T20:2:12Z</time></trkpt>
<trkpt lat="46.14331523" lon="6.10717217"><ele></ele><time>2014-4-20T20:2:15Z</time></trkpt>
<trkpt lat="46.14329327" lon="6.10721114"><ele></ele><time>2014-4-20T20:2:18Z</time></trkpt>
<trkpt lat="46.14338639" lon="6.10765236"><ele></ele><time>2014-4-20T20:2:21Z</time></trkpt>
<trkpt lat="46.14343978" lon="6.10779796"><ele></ele><time>2014-4-20T20:2:24Z</time></trkpt>
<trkpt lat="46.14328438" lon="6.10817213"><ele></ele><time>2014-4-20T20:2:27Z</time></trkpt>
<trkpt lat="46.14318422" lon="6.10827606"><ele></ele><time>2014-4-20T20:2:30Z</time></trkpt>
<trkpt lat="46.14318112" lon="6.10847983"><ele></ele><time>2014-4-20T20:2:33Z</time></trkpt>
<trkpt lat="46.14323133" lon="6.10857957"><ele></ele><time>2014-4-20T20:2:36Z</time></trkpt>
<trkpt lat="46.14353509" lon="6.10931952"><ele></ele><time>2014-4-20T20:2:39Z</time></trkpt>
<trkpt lat="46.14349024" lon="6.10962102"><ele></ele><time>2014-4-20T20:2:42Z</time></trkpt>
<trkpt lat="46.14342855" lon="6.10968967"><ele></ele><time>2014-4-20T20:2:45Z</time></trkpt>
<trkpt lat="46.14302530" lon="6.11017138"><ele></ele><time>2014-4-20T20:2:48Z</time></trkpt>
<trkpt lat="46.14290728" lon="6.11033005"><ele></ele><time>2014-4-20T20:2:51Z</time></trkpt>
<trkpt lat="46.14288272" lon="6.11058553"><ele></ele><time>2014-4-20T20:2:54Z</time></trkpt>
<trkpt lat="46.14288465" lon="6.11072274"><ele></ele><time>2014-4-20T20:2:57Z</time></trkpt>
<trkpt lat="46.14289789" lon="6.11128366"><ele></ele><time>2014-4-20T20:3:0Z</time></trkpt>
<trkpt lat="46.14288968" lon="6.11159446"><ele></ele><time>2014-4-20T20:3:3Z</time></trkpt>
<trkpt lat="46.14291516" lon="6.11246668"><ele></ele><time>2014-4-20T20:3:6Z</time></trkpt>
<trkpt lat="46.14300166" lon="6.11341937"><ele></ele><time>2014-4-20T20:3:9Z</time></trkpt>
<trkpt lat="46.14303083" lon="6.11389303"><ele></ele><time>2014-4-20T20:3:12Z</time></trkpt>
<trkpt lat="46.14304843" lon="6.11400870"><ele></ele><time>2014-4-20T20:3:15Z</time></trkpt>
<trkpt lat="46.14312035" lon="6.11422428"><ele></ele><time>2014-4-20T20:3:18Z</time></trkpt>
<trkpt lat="46.14312563" lon="6.11460825"><ele></ele><time>2014-4-20T20:3:21Z</time></trkpt>
<trkpt lat="46.14307266" lon="6.11511452"><ele></ele><time>2014-4-20T20:3:24Z</time></trkpt>
<trkpt lat="46.14306545" lon="6.11529733"><ele></ele><time>2014-4-20T20:3:27Z</time></trkpt>
<trkpt lat="46.14297937" lon="6.11611842"><ele></ele><time>2014-4-20T20:3:30Z</time></trkpt>
<trkpt lat="46.14294190" lon="6.11642755"><ele></ele><time>2014-4-20T20:3:33Z</time></trkpt>
<trkpt lat="46.14283092" lon="6.11744318"><ele></ele><time>2014-4-20T20:3:36Z</time></trkpt>
<trkpt lat="46.14283076" lon="6.11756237"><ele></ele><time>2014-4-20T20:3:39Z</time></trkpt>
<trkpt lat="46.14281399" lon="6.11792925"><ele></ele><time>2014-4-20T20:3:42Z</time></trkpt>
<trkpt lat="46.14278784" lon="6.11822387"><ele></ele><time>2014-4-20T20:3:45Z</time></trkpt>
<trkpt lat="46.14271902" lon="6.11889526"><ele></ele><time>2014-4-20T20:3:48Z</time></trkpt>
<trkpt lat="46.14270109" lon="6.11962424"><ele></ele><time>2014-4-20T20:3:51Z</time></trkpt>
<trkpt lat="46.14279706" lon="6.11990436"><ele></ele><time>2014-4-20T20:3:54Z</time></trkpt>
<trkpt lat="46.14286093" lon="6.11994233"><ele></ele><time>2014-4-20T20:3:57Z</time></trkpt>
<trkpt lat="46.14298356" lon="6.11996396"><ele></ele><time>2014-4-20T20:4:0Z</time></trkpt>
<trkpt lat="46.14374715" lon="6.12028196"><ele></ele><time>2014-4-20T20:4:3Z</time></trkpt>
<trkpt lat="46.14377288" lon="6.12030116"><ele></ele><time>2014-4-20T20:4:6Z</time></trkpt>
<trkpt lat="46.14380457" lon="6.12052387"><ele></ele><time>2014-4-20T20:4:9Z</time></trkpt>
<trkpt lat="46.14373449" lon="6.12097439"><ele></ele><time>2014-4-20T20:4:12Z</time></trkpt>
<trkpt lat="46.14368998" lon="6.12121227"><ele></ele><time>2014-4-20T20:4:15Z</time></trkpt>
<trkpt lat="46.14380943" lon="6.12159256"><ele></ele><time>2014-4-20T20:4:18Z</time></trkpt>
<trkpt lat="46.14370943" lon="6.12219337"><ele></ele><time>2014-4-20T20:4:21Z</time></trkpt>
<trkpt lat="46.14341405" lon="6.12288874"><ele></ele><time>2014-4-20T20:4:24Z</time></trkpt>
<trkpt lat="46.14305975" lon="6.12353205"><ele></ele><time>2014-4-20T20:4:27Z</time></trkpt>
<trkpt lat="46.14260813" lon="6.12423772"><ele></ele><time>2014-4-20T20:4:30Z</time></trkpt>
<trkpt lat="46.14235684" lon="6.12470652"><ele></ele><time>2014-4-20T20:4:33Z</time></trkpt>
<trkpt lat="46.14235106" lon="6.12471733"><ele></ele><time>2014-4-20T20:4:36Z</time></trkpt>
<trkpt lat="46.14234813" lon="6.12471775"><ele></ele><time>2014-4-20T20:4:39Z</time></trkpt>
<trkpt lat="46.14233698" lon="6.12472286"><ele></ele><time>2014-4-20T20:4:42Z</time></trkpt>
<trkpt lat="46.14231049" lon="6.12476855"><ele></ele><time>2014-4-20T20:4:45Z</time></trkpt>
<trkpt lat="46.14209013" lon="6.12521555"><ele></ele><time>2014-4-20T20:4:48Z</time></trkpt>
<trkpt lat="46.14167933" lon="6.12599993"><ele></ele><time>2014-4-20T20:4:51Z</time></trkpt>
<trkpt lat="46.14126854" lon="6.12682873"><ele></ele><time>2014-4-20T20:4:54Z</time></trkpt>
<trkpt lat="46.14110266" lon="6.12752192"><ele></ele><time>2014-4-20T20:4:57Z</time></trkpt>
<trkpt lat="46.14107315" lon="6.12830495"><ele></ele><time>2014-4-20T20:5:0Z</time></trkpt>
<trkpt lat="46.14105086" lon="6.12920534"><ele></ele><time>2014-4-20T20:5:3Z</time></trkpt>
<trkpt lat="46.14106754" lon="6.13019298"><ele></ele><time>2014-4-20T20:5:6Z</time></trkpt>
<trkpt lat="46.14120232" lon="6.13123745"><ele></ele><time>2014-4-20T20:5:9Z</time></trkpt>
<trkpt lat="46.14107810" lon="6.13164992"><ele></ele><time>2014-4-20T20:5:12Z</time></trkpt>
<trkpt lat="46.14105916" lon="6.13169527"><ele></ele><time>2014-4-20T20:5:15Z</time></trkpt>
<trkpt lat="46.14108045" lon="6.13181605"><ele></ele><time>2014-4-20T20:5:18Z</time></trkpt>
<trkpt lat="46.14153089" lon="6.13226683"><ele></ele><time>2014-4-20T20:5:21Z</time></trkpt>
<trkpt lat="46.14187438" lon="6.13256288"><ele></ele><time>2014-4-20T20:5:24Z</time></trkpt>
<trkpt lat="46.14226213" lon="6.13299496"><ele></ele><time>2014-4-20T20:5:27Z</time></trkpt>
<trkpt lat="46.14273990" lon="6.13363174"><ele></ele><time>2014-4-20T20:5:30Z</time></trkpt>
<trkpt lat="46.14322823" lon="6.13427497"><ele></ele><time>2014-4-20T20:5:33Z</time></trkpt>
<trkpt lat="46.14393549" lon="6.13525967"><ele></ele><time>2014-4-20T20:5:36Z</time></trkpt>
<trkpt lat="46.14483026" lon="6.13623315"><ele></ele><time>2014-4-20T20:5:39Z</time></trkpt>
<trkpt lat="46.14498616" lon="6.13641294"><ele></ele><time>2014-4-20T20:5:42Z</time></trkpt>
<trkpt lat="46.14521532" lon="6.13651570"><ele></ele><time>2014-4-20T20:5:45Z</time></trkpt>
<trkpt lat="46.14547608" lon="6.13653112"><ele></ele><time>2014-4-20T20:5:48Z</time></trkpt>
<trkpt lat="46.14566627" lon="6.13661544"><ele></ele><time>2014-4-20T20:5:51Z</time></trkpt>
<trkpt lat="46.14566308" lon="6.13665358"><ele></ele><time>2014-4-20T20:5:54Z</time></trkpt>
<trkpt lat="46.14565529" lon="6.13665526"><ele></ele><time>2014-4-20T20:5:57Z</time></trkpt>
<trkpt lat="46.14560156" lon="6.13755036"><ele></ele><time>2014-4-20T20:6:0Z</time></trkpt>
<trkpt lat="46.14561154" lon="6.13786929"><ele></ele><time>2014-4-20T20:6:3Z</time></trkpt>
<trkpt lat="46.14574062" lon="6.13820306"><ele></ele><time>2014-4-20T20:6:6Z</time></trkpt>
<trkpt lat="46.14639885" lon="6.13902633"><ele></ele><time>2014-4-20T20:6:9Z</time></trkpt>
<trkpt lat="46.14688072" lon="6.13962254"><ele></ele><time>2014-4-20T20:6:12Z</time></trkpt>
<trkpt lat="46.14736235" lon="6.14029728"><ele></ele><time>2014-4-20T20:6:15Z</time></trkpt>
<trkpt lat="46.14792553" lon="6.14106422"><ele></ele><time>2014-4-20T20:6:18Z</time></trkpt>
<trkpt lat="46.14819165" lon="6.14109322"><ele></ele><time>2014-4-20T20:6:21Z</time></trkpt>
<trkpt lat="46.14826676" lon="6.14102399"><ele></ele><time>2014-4-20T20:6:24Z</time></trkpt>
<trkpt lat="46.14844026" lon="6.14098476"><ele></ele><time>2014-4-20T20:6:27Z</time></trkpt>
<trkpt lat="46.14931676" lon="6.14145725"><ele></ele><time>2014-4-20T20:6:30Z</time></trkpt>
<trkpt lat="46.14972504" lon="6.14167199"><ele></ele><time>2014-4-20T20:6:33Z</time></trkpt>
<trkpt lat="46.14986728" lon="6.14198095"><ele></ele><time>2014-4-20T20:6:36Z</time></trkpt>
<trkpt lat="46.14988832" lon="6.14222780"><ele></ele><time>2014-4-20T20:6:39Z</time></trkpt>
<trkpt lat="46.14991087" lon="6.14238823"><ele></ele><time>2014-4-20T20:6:42Z</time></trkpt>
<trkpt lat="46.14995118" lon="6.14254623"><ele></ele><time>2014-4-20T20:6:45Z</time></trkpt>
<trkpt lat="46.15044278" lon="6.14378926"><ele></ele><time>2014-4-20T20:6:48Z</time></trkpt>
<trkpt lat="46.15045083" lon="6.14406578"><ele></ele><time>2014-4-20T20:6:51Z</time></trkpt>
<trkpt lat="46.15034538" lon="6.14428815"><ele></ele><time>2014-4-20T20:6:54Z</time></trkpt>
<trkpt lat="46.15015578" lon="6.14445227"><ele></ele><time>2014-4-20T20:6:57Z</time></trkpt>
<trkpt lat="46.14989997" lon="6.14457423"><ele></ele><time>2014-4-20T20:7:0Z</time></trkpt>
<trkpt lat="46.14975312" lon="6.14474866"><ele></ele><time>2014-4-20T20:7:3Z</time></trkpt>
<trkpt lat="46.14980039" lon="6.14520882"><ele></ele><time>2014-4-20T20:7:6Z</time></trkpt>
<trkpt lat="46.15034798" lon="6.14559129"><ele></ele><time>2014-4-20T20:7:9Z</time></trkpt>
<trkpt lat="46.15035050" lon="6.14603922"><ele></ele><time>2014-4-20T20:7:12Z</time></trkpt>
<trkpt lat="46.15032217" lon="6.14610225"><ele></ele><time>2014-4-20T20:7:15Z</time></trkpt>
<trkpt lat="46.15025067" lon="6.14631054"><ele></ele><time>2014-4-20T20:7:18Z</time></trkpt>
<trkpt lat="46.15012963" lon="6.14706659"><ele></ele><time>2014-4-20T20:7:21Z</time></trkpt>
<trkpt lat="46.15010298" lon="6.14727052"><ele></ele><time>2014-4-20T20:7:24Z</time></trkpt>
<trkpt lat="46.15016920" lon="6.14780587"><ele></ele><time>2014-4-20T20:7:27Z</time></trkpt>
<trkpt lat="46.15034723" lon="6.14831264"><ele></ele><time>2014-4-20T20:7:30Z</time></trkpt>
<trkpt lat="46.15049114" lon="6.14864096"><ele></ele><time>2014-4-20T20:7:33Z</time></trkpt>
<trkpt lat="46.15061168" lon="6.14899149"><ele></ele><time>2014-4-20T20:7:36Z</time></trkpt>
<trkpt lat="46.15078459" lon="6.14945627"><ele></ele><time>2014-4-20T20:7:39Z</time></trkpt>
<trkpt lat="46.15086053" lon="6.14968895"><ele></ele><time>2014-4-20T20:7:42Z</time></trkpt>
<trkpt lat="46.15115139" lon="6.14971108"><ele></ele><time>2014-4-20T20:7:45Z</time></trkpt>
<trkpt lat="46.15204180" lon="6.14970555"><ele></ele><time>2014-4-20T20:7:48Z</time></trkpt>
<trkpt lat="46.15238939" lon="6.14969549"><ele></ele><time>2014-4-20T20:7:51Z</time></trkpt>
<trkpt lat="46.15278888" lon="6.14969255"><ele></ele><time>2014-4-20T20:7:54Z</time></trkpt>
<trkpt lat="46.15308308" lon="6.14997553"><ele></ele><time>2014-4-20T20:7:57Z</time></trkpt>
<trkpt lat="46.15356395" lon="6.15120063"><ele></ele><time>2014-4-20T20:8:0Z</time></trkpt>
<trkpt lat="46.15359429" lon="6.15128478"><ele></ele><time>2014-4-20T20:8:3Z</time></trkpt>
<trkpt lat="46.15395245" lon="6.15223370"><ele></ele><time>2014-4-20T20:8:6Z</time></trkpt>
<trkpt lat="46.15452007" lon="6.15371386"><ele></ele><time>2014-4-20T20:8:9Z</time></trkpt>
<trkpt lat="46.15454522" lon="6.15377488"><ele></ele><time>2014-4-20T20:8:12Z</time></trkpt>
<trkpt lat="46.15490723" lon="6.15438784"><ele></ele><time>2014-4-20T20:8:15Z</time></trkpt>
<trkpt lat="46.15520052" lon="6.15485136"><ele></ele><time>2014-4-20T20:8:18Z</time></trkpt>
<trkpt lat="46.15550210" lon="6.15532972"><ele></ele><time>2014-4-20T20:8:21Z</time></trkpt>
<trkpt lat="46.15557988" lon="6.15547707"><ele></ele><time>2014-4-20T20:8:24Z</time></trkpt>
<trkpt lat="46.15556882" lon="6.15544925"><ele></ele><time>2014-4-20T20:8:27Z</time></trkpt>
<trkpt lat="46.15563738" lon="6.15528295"><ele></ele><time>2014-4-20T20:8:30Z</time></trkpt>
<trkpt lat="46.15599202" lon="6.15454853"><ele></ele><time>2014-4-20T20:8:33Z</time></trkpt>
<trkpt lat="46.15622135" lon="6.15406003"><ele></ele><time>2014-4-20T20:8:36Z</time></trkpt>
<trkpt lat="46.15646384" lon="6.15362920"><ele></ele><time>2014-4-20T20:8:39Z</time></trkpt>
<trkpt lat="46.15679182" lon="6.15401980"><ele></ele><time>2014-4-20T20:8:42Z</time></trkpt>
<trkpt lat="46.15727395" lon="6.15460150"><ele></ele><time>2014-4-20T20:8:45Z</time></trkpt>
<trkpt lat="46.15775088" lon="6.15517566"><ele></ele><time>2014-4-20T20:8:48Z</time></trkpt>
<trkpt lat="46.15811666" lon="6.15562309"><ele></ele><time>2014-4-20T20:8:51Z</time></trkpt>
<trkpt lat="46.15855294" lon="6.15611695"><ele></ele><time>2014-4-20T20:8:54Z</time></trkpt>
<trkpt lat="46.15872628" lon="6.15633287"><ele></ele><time>2014-4-20T20:8:57Z</time></trkpt>
<trkpt lat="46.15913783" lon="6.15685288"><ele></ele><time>2014-4-20T20:9:0Z</time></trkpt>
<trkpt lat="46.15952826" lon="6.15733978"><ele></ele><time>2014-4-20T20:9:3Z</time></trkpt>
<trkpt lat="46.15981802" lon="6.15784136"><ele></ele><time>2014-4-20T20:9:6Z</time></trkpt>
<trkpt lat="46.16012614" lon="6.15824042"><ele></ele><time>2014-4-20T20:9:9Z</time></trkpt>
<trkpt lat="46.16072754" lon="6.15889932"><ele></ele><time>2014-4-20T20:9:12Z</time></trkpt>
<trkpt lat="46.16147538" lon="6.15971002"><ele></ele><time>2014-4-20T20:9:15Z</time></trkpt>
<trkpt lat="46.16178785" lon="6.16006206"><ele></ele><time>2014-4-20T20:9:18Z</time></trkpt>
<trkpt lat="46.16176698" lon="6.16032592"><ele></ele><time>2014-4-20T20:9:21Z</time></trkpt>
<trkpt lat="46.16121805" lon="6.16112614"><ele></ele><time>2014-4-20T20:9:24Z</time></trkpt>
<trkpt lat="46.16067038" lon="6.16194078"><ele></ele><time>2014-4-20T20:9:27Z</time></trkpt>
<trkpt lat="46.16016554" lon="6.16268786"><ele></ele><time>2014-4-20T20:9:30Z</time></trkpt>
<trkpt lat="46.15962700" lon="6.16349218"><ele></ele><time>2014-4-20T20:9:33Z</time></trkpt>
<trkpt lat="46.15953505" lon="6.16364029"><ele></ele><time>2014-4-20T20:9:36Z</time></trkpt>
<trkpt lat="46.15954360" lon="6.16383224"><ele></ele><time>2014-4-20T20:9:39Z</time></trkpt>
<trkpt lat="46.15972423" lon="6.16484016"><ele></ele><time>2014-4-20T20:9:42Z</time></trkpt>
<trkpt lat="46.15986186" lon="6.16593677"><ele></ele><time>2014-4-20T20:9:45Z</time></trkpt>
<trkpt lat="46.16003486" lon="6.16741793"><ele></ele><time>2014-4-20T20:9:48Z</time></trkpt>
<trkpt lat="46.16020963" lon="6.16896967"><ele></ele><time>2014-4-20T20:9:51Z</time></trkpt>
<trkpt lat="46.16028825" lon="6.16962715"><ele></ele><time>2014-4-20T20:9:54Z</time></trkpt>
<trkpt lat="46.16041565" lon="6.17071345"><ele></ele><time>2014-4-20T20:9:57Z</time></trkpt>
<trkpt lat="46.16054976" lon="6.17184492"><ele></ele><time>2014-4-20T20:10:0Z</time></trkpt>
<trkpt lat="46.16069628" lon="6.17314034"><ele></ele><time>2014-4-20T20:10:3Z</time></trkpt>
<trkpt lat="46.16073685" lon="6.17354242"><ele></ele><time>2014-4-20T20:10:6Z</time></trkpt>
<trkpt lat="46.16086777" lon="6.17464917"><ele></ele><time>2014-4-20T20:10:9Z</time></trkpt>
<trkpt lat="46.16094757" lon="6.17529558"><ele></ele><time>2014-4-20T20:10:12Z</time></trkpt>
<trkpt lat="46.16108470" lon="6.17649545"><ele></ele><time>2014-4-20T20:10:15Z</time></trkpt>
<trkpt lat="46.16137178" lon="6.17731973"><ele></ele><time>2014-4-20T20:10:18Z</time></trkpt>
<trkpt lat="46.16157638" lon="6.17757169"><ele></ele><time>2014-4-20T20:10:21Z</time></trkpt>
<trkpt lat="46.16191794" lon="6.17788794"><ele></ele><time>2014-4-20T20:10:24Z</time></trkpt>
<trkpt lat="46.16223377" lon="6.17819622"><ele></ele><time>2014-4-20T20:10:27Z</time></trkpt>
<trkpt lat="46.16295252" lon="6.17891556"><ele></ele><time>2014-4-20T20:10:30Z</time></trkpt>
<trkpt lat="46.16337799" lon="6.17937396"><ele></ele><time>2014-4-20T20:10:33Z</time></trkpt>
<trkpt lat="46.16338989" lon="6.17938863"><ele></ele><time>2014-4-20T20:10:36Z</time></trkpt>
<trkpt lat="46.16338385" lon="6.17937849"><ele></ele><time>2014-4-20T20:10:39Z</time></trkpt>
<trkpt lat="46.16335569" lon="6.17936055"><ele></ele><time>2014-4-20T20:10:42Z</time></trkpt>
<trkpt lat="46.16338863" lon="6.17956172"><ele></ele><time>2014-4-20T20:10:45Z</time></trkpt>
<trkpt lat="46.16343574" lon="6.18049135"><ele></ele><time>2014-4-20T20:10:48Z</time></trkpt>
<trkpt lat="46.16386363" lon="6.18196892"><ele></ele><time>2014-4-20T20:10:51Z</time></trkpt>
<trkpt lat="46.16435733" lon="6.18284952"><ele></ele><time>2014-4-20T20:10:54Z</time></trkpt>
<trkpt lat="46.16479813" lon="6.18348244"><ele></ele><time>2014-4-20T20:10:57Z</time></trkpt>
<trkpt lat="46.16502427" lon="6.18407889"><ele></ele><time>2014-4-20T20:11:0Z</time></trkpt>
<trkpt lat="46.16520432" lon="6.18471818"><ele></ele><time>2014-4-20T20:11:3Z</time></trkpt>
<trkpt lat="46.16555619" lon="6.18529025"><ele></ele><time>2014-4-20T20:11:6Z</time></trkpt>
<trkpt lat="46.16559567" lon="6.18529519"><ele></ele><time>2014-4-20T20:11:9Z</time></trkpt>
<trkpt lat="46.16594067" lon="6.18515840"><ele></ele><time>2014-4-20T20:11:12Z</time></trkpt>
<trkpt lat="46.16622373" lon="6.18527583"><ele></ele><time>2014-4-20T20:11:15Z</time></trkpt>
<trkpt lat="46.16675279" lon="6.18570113"><ele></ele><time>2014-4-20T20:11:18Z</time></trkpt>
<trkpt lat="46.16690618" lon="6.18584488"><ele></ele><time>2014-4-20T20:11:21Z</time></trkpt>
<trkpt lat="46.16699276" lon="6.18607328"><ele></ele><time>2014-4-20T20:11:24Z</time></trkpt>
<trkpt lat="46.16700718" lon="6.18621762"><ele></ele><time>2014-4-20T20:11:27Z</time></trkpt>
<trkpt lat="46.16712143" lon="6.18661433"><ele></ele><time>2014-4-20T20:11:30Z</time></trkpt>
<trkpt lat="46.16709033" lon="6.18685280"><ele></ele><time>2014-4-20T20:11:33Z</time></trkpt>
<trkpt lat="46.16664768" lon="6.18797765"><ele></ele><time>2014-4-20T20:11:36Z</time></trkpt>
<trkpt lat="46.16640863" lon="6.18838870"><ele></ele><time>2014-4-20T20:11:39Z</time></trkpt>
<trkpt lat="46.16632774" lon="6.18849993"><ele></ele><time>2014-4-20T20:11:42Z</time></trkpt>
<trkpt lat="46.16625717" lon="6.18863286"><ele></ele><time>2014-4-20T20:11:45Z</time></trkpt>
<trkpt lat="46.16623714" lon="6.18872783"><ele></ele><time>2014-4-20T20:11:48Z</time></trkpt>
<trkpt lat="46.16613018" lon="6.18916017"><ele></ele><time>2014-4-20T20:11:51Z</time></trkpt>
<trkpt lat="46.16606648" lon="6.18920744"><ele></ele><time>2014-4-20T20:11:54Z</time></trkpt>
<trkpt lat="46.16593136" lon="6.18928623"><ele></ele><time>2014-4-20T20:11:57Z</time></trkpt>
<trkpt lat="46.16546759" lon="6.18960056"><ele></ele><time>2014-4-20T20:12:0Z</time></trkpt>
<trkpt lat="46.16504867" lon="6.19007229"><ele></ele><time>2014-4-20T20:12:3Z</time></trkpt>
<trkpt lat="46.16497566" lon="6.19024814"><ele></ele><time>2014-4-20T20:12:6Z</time></trkpt>
<trkpt lat="46.16491078" lon="6.19051217"><ele></ele><time>2014-4-20T20:12:9Z</time></trkpt>
<trkpt lat="46.16476016" lon="6.19078928"><ele></ele><time>2014-4-20T20:12:12Z</time></trkpt>
<trkpt lat="46.16437702" lon="6.19102657"><ele></ele><time>2014-4-20T20:12:15Z</time></trkpt>
<trkpt lat="46.16427745" lon="6.19088450"><ele></ele><time>2014-4-20T20:12:18Z</time></trkpt>
<trkpt lat="46.16387143" lon="6.18983734"><ele></ele><time>2014-4-20T20:12:21Z</time></trkpt>
<trkpt lat="46.16365870" lon="6.18943904"><ele></ele><time>2014-4-20T20:12:24Z</time></trkpt>
<trkpt lat="46.16354696" lon="6.18933108"><ele></ele><time>2014-4-20T20:12:27Z</time></trkpt>
<trkpt lat="46.16337002" lon="6.18928716"><ele></ele><time>2014-4-20T20:12:30Z</time></trkpt>
<trkpt lat="46.16285403" lon="6.18935086"><ele></ele><time>2014-4-20T20:12:33Z</time></trkpt>
<trkpt lat="46.16280349" lon="6.18935396"><ele></ele><time>2014-4-20T20:12:36Z</time></trkpt>
<trkpt lat="46.16256117" lon="6.18933728"><ele></ele><time>2014-4-20T20:12:39Z</time></trkpt>
<trkpt lat="46.16243033" lon="6.18931607"><ele></ele><time>2014-4-20T20:12:42Z</time></trkpt>
<trkpt lat="46.16243946" lon="6.18930685"><ele></ele><time>2014-4-20T20:12:45Z</time></trkpt>
<trkpt lat="46.16243946" lon="6.18930685"><ele></ele><time>2014-4-20T20:12:48Z</time></trkpt>
</trkseg></trk></gpx>